<?xml version="1.0" encoding="UTF-8" standalone="no" ?>
<gpx xmlns="http://www.topografix.com/GPX/1/1" xmlns:xsi="http://www.w3.org/2001/XMLSchema-instance" xsi:schemaLocation="http://www.topografix.com/GPX/1/1 http://www.topografix.com/GPX/1/1/gpx.xsd" version="1.1" creator="VisuGPX - https://www.visugpx.com">
  <metadata>
    <name>vtt2montsarree2021osm</name>
  </metadata>
  <trk>
    <name><![CDATA[vtt2montsarree2021osm]]></name>
    <extensions>
      <line xmlns="http://www.topografix.com/GPX/gpx_style/0/2">
        <width>4</width>
      </line>
    </extensions>
    <trkseg>
      <trkpt lat="48.3636" lon="-3.74847">
        <ele>169.1</ele>
        <time>2021-11-21T14:44:24.930Z</time>
      </trkpt>
      <trkpt lat="48.36359" lon="-3.74846">
        <ele>169.2</ele>
        <time>2021-11-21T14:44:25.003Z</time>
      </trkpt>
      <trkpt lat="48.36362" lon="-3.74828">
        <ele>169.4</ele>
        <time>2021-11-21T14:44:26.439Z</time>
      </trkpt>
      <trkpt lat="48.36362" lon="-3.74828">
        <ele>169.5</ele>
        <time>2021-11-21T14:44:26.480Z</time>
      </trkpt>
      <trkpt lat="48.36362" lon="-3.74824">
        <ele>169.5</ele>
        <time>2021-11-21T14:44:26.808Z</time>
      </trkpt>
      <trkpt lat="48.36362" lon="-3.74812">
        <ele>169.7</ele>
        <time>2021-11-21T14:44:27.681Z</time>
      </trkpt>
      <trkpt lat="48.36362" lon="-3.74801">
        <ele>169.8</ele>
        <time>2021-11-21T14:44:28.498Z</time>
      </trkpt>
      <trkpt lat="48.36359" lon="-3.74788">
        <ele>170</ele>
        <time>2021-11-21T14:44:29.458Z</time>
      </trkpt>
      <trkpt lat="48.36358" lon="-3.7478">
        <ele>170.2</ele>
        <time>2021-11-21T14:44:30.118Z</time>
      </trkpt>
      <trkpt lat="48.36338" lon="-3.74716">
        <ele>171.3</ele>
        <time>2021-11-21T14:44:35.342Z</time>
      </trkpt>
      <trkpt lat="48.36335" lon="-3.74709">
        <ele>171.4</ele>
        <time>2021-11-21T14:44:35.907Z</time>
      </trkpt>
      <trkpt lat="48.36333" lon="-3.74701">
        <ele>171.5</ele>
        <time>2021-11-21T14:44:36.542Z</time>
      </trkpt>
      <trkpt lat="48.36294" lon="-3.74573">
        <ele>166.3</ele>
        <time>2021-11-21T14:44:46.993Z</time>
      </trkpt>
      <trkpt lat="48.3628" lon="-3.74525">
        <ele>165.6</ele>
        <time>2021-11-21T14:44:50.869Z</time>
      </trkpt>
      <trkpt lat="48.36277" lon="-3.74513">
        <ele>165.4</ele>
        <time>2021-11-21T14:44:51.782Z</time>
      </trkpt>
      <trkpt lat="48.36276" lon="-3.74502">
        <ele>166</ele>
        <time>2021-11-21T14:44:52.668Z</time>
      </trkpt>
      <trkpt lat="48.36276" lon="-3.74489">
        <ele>166.6</ele>
        <time>2021-11-21T14:44:53.619Z</time>
      </trkpt>
      <trkpt lat="48.36277" lon="-3.74475">
        <ele>167.1</ele>
        <time>2021-11-21T14:44:54.666Z</time>
      </trkpt>
      <trkpt lat="48.3628" lon="-3.74455">
        <ele>167.4</ele>
        <time>2021-11-21T14:44:56.164Z</time>
      </trkpt>
      <trkpt lat="48.36284" lon="-3.74436">
        <ele>167.3</ele>
        <time>2021-11-21T14:44:57.643Z</time>
      </trkpt>
      <trkpt lat="48.36295" lon="-3.74372">
        <ele>166.1</ele>
        <time>2021-11-21T14:45:02.537Z</time>
      </trkpt>
      <trkpt lat="48.36297" lon="-3.7435">
        <ele>166</ele>
        <time>2021-11-21T14:45:04.200Z</time>
      </trkpt>
      <trkpt lat="48.36299" lon="-3.74329">
        <ele>166.5</ele>
        <time>2021-11-21T14:45:05.727Z</time>
      </trkpt>
      <trkpt lat="48.36298" lon="-3.74281">
        <ele>166.1</ele>
        <time>2021-11-21T14:45:09.268Z</time>
      </trkpt>
      <trkpt lat="48.36299" lon="-3.74256">
        <ele>165.5</ele>
        <time>2021-11-21T14:45:11.126Z</time>
      </trkpt>
      <trkpt lat="48.36301" lon="-3.7424">
        <ele>165.2</ele>
        <time>2021-11-21T14:45:12.311Z</time>
      </trkpt>
      <trkpt lat="48.36304" lon="-3.74229">
        <ele>165.3</ele>
        <time>2021-11-21T14:45:13.219Z</time>
      </trkpt>
      <trkpt lat="48.36309" lon="-3.74221">
        <ele>165.1</ele>
        <time>2021-11-21T14:45:14.057Z</time>
      </trkpt>
      <trkpt lat="48.36291" lon="-3.74194">
        <ele>166.7</ele>
        <time>2021-11-21T14:45:16.973Z</time>
      </trkpt>
      <trkpt lat="48.36284" lon="-3.74186">
        <ele>167.1</ele>
        <time>2021-11-21T14:45:18.008Z</time>
      </trkpt>
      <trkpt lat="48.36271" lon="-3.74168">
        <ele>168.5</ele>
        <time>2021-11-21T14:45:19.894Z</time>
      </trkpt>
      <trkpt lat="48.36259" lon="-3.74145">
        <ele>170</ele>
        <time>2021-11-21T14:45:22.140Z</time>
      </trkpt>
      <trkpt lat="48.36243" lon="-3.74057">
        <ele>177.6</ele>
        <time>2021-11-21T14:45:28.939Z</time>
      </trkpt>
      <trkpt lat="48.36259" lon="-3.74047">
        <ele>176.8</ele>
        <time>2021-11-21T14:45:30.912Z</time>
      </trkpt>
      <trkpt lat="48.36274" lon="-3.74036">
        <ele>178.2</ele>
        <time>2021-11-21T14:45:32.730Z</time>
      </trkpt>
      <trkpt lat="48.3628" lon="-3.74036">
        <ele>178.9</ele>
        <time>2021-11-21T14:45:33.375Z</time>
      </trkpt>
      <trkpt lat="48.36308" lon="-3.74079">
        <ele>180.6</ele>
        <time>2021-11-21T14:45:37.869Z</time>
      </trkpt>
      <trkpt lat="48.36322" lon="-3.74096">
        <ele>179.7</ele>
        <time>2021-11-21T14:45:39.897Z</time>
      </trkpt>
      <trkpt lat="48.36364" lon="-3.74093">
        <ele>181.9</ele>
        <time>2021-11-21T14:45:44.671Z</time>
      </trkpt>
      <trkpt lat="48.36337" lon="-3.74006">
        <ele>191.9</ele>
        <time>2021-11-21T14:45:51.948Z</time>
      </trkpt>
      <trkpt lat="48.36369" lon="-3.73979">
        <ele>190.6</ele>
        <time>2021-11-21T14:45:56.066Z</time>
      </trkpt>
      <trkpt lat="48.36381" lon="-3.73956">
        <ele>188.9</ele>
        <time>2021-11-21T14:45:58.258Z</time>
      </trkpt>
      <trkpt lat="48.36393" lon="-3.73931">
        <ele>186.8</ele>
        <time>2021-11-21T14:46:00.584Z</time>
      </trkpt>
      <trkpt lat="48.36398" lon="-3.739">
        <ele>186.8</ele>
        <time>2021-11-21T14:46:02.941Z</time>
      </trkpt>
      <trkpt lat="48.36405" lon="-3.73897">
        <ele>185.2</ele>
        <time>2021-11-21T14:46:03.741Z</time>
      </trkpt>
      <trkpt lat="48.36411" lon="-3.73878">
        <ele>184.4</ele>
        <time>2021-11-21T14:46:05.376Z</time>
      </trkpt>
      <trkpt lat="48.3642" lon="-3.73854">
        <ele>183</ele>
        <time>2021-11-21T14:46:07.327Z</time>
      </trkpt>
      <trkpt lat="48.36429" lon="-3.7381">
        <ele>181.1</ele>
        <time>2021-11-21T14:46:10.784Z</time>
      </trkpt>
      <trkpt lat="48.3643" lon="-3.73777">
        <ele>181.3</ele>
        <time>2021-11-21T14:46:13.204Z</time>
      </trkpt>
      <trkpt lat="48.3643" lon="-3.73741">
        <ele>181.4</ele>
        <time>2021-11-21T14:46:15.882Z</time>
      </trkpt>
      <trkpt lat="48.3643" lon="-3.73718">
        <ele>180.8</ele>
        <time>2021-11-21T14:46:17.567Z</time>
      </trkpt>
      <trkpt lat="48.36432" lon="-3.73702">
        <ele>179.5</ele>
        <time>2021-11-21T14:46:18.748Z</time>
      </trkpt>
      <trkpt lat="48.36436" lon="-3.7367">
        <ele>177.1</ele>
        <time>2021-11-21T14:46:21.160Z</time>
      </trkpt>
      <trkpt lat="48.36455" lon="-3.73609">
        <ele>169</ele>
        <time>2021-11-21T14:46:26.216Z</time>
      </trkpt>
      <trkpt lat="48.36462" lon="-3.73621">
        <ele>168.7</ele>
        <time>2021-11-21T14:46:27.383Z</time>
      </trkpt>
      <trkpt lat="48.36478" lon="-3.73652">
        <ele>167.1</ele>
        <time>2021-11-21T14:46:30.297Z</time>
      </trkpt>
      <trkpt lat="48.36478" lon="-3.73668">
        <ele>167.4</ele>
        <time>2021-11-21T14:46:31.466Z</time>
      </trkpt>
      <trkpt lat="48.36478" lon="-3.73679">
        <ele>167.5</ele>
        <time>2021-11-21T14:46:32.328Z</time>
      </trkpt>
      <trkpt lat="48.3648" lon="-3.73702">
        <ele>167.4</ele>
        <time>2021-11-21T14:46:34.022Z</time>
      </trkpt>
      <trkpt lat="48.3648" lon="-3.73711">
        <ele>167.5</ele>
        <time>2021-11-21T14:46:34.668Z</time>
      </trkpt>
      <trkpt lat="48.36486" lon="-3.73743">
        <ele>166.3</ele>
        <time>2021-11-21T14:46:37.110Z</time>
      </trkpt>
      <trkpt lat="48.36487" lon="-3.73763">
        <ele>165.7</ele>
        <time>2021-11-21T14:46:38.624Z</time>
      </trkpt>
      <trkpt lat="48.36492" lon="-3.73793">
        <ele>163</ele>
        <time>2021-11-21T14:46:40.895Z</time>
      </trkpt>
      <trkpt lat="48.36495" lon="-3.73795">
        <ele>162.1</ele>
        <time>2021-11-21T14:46:41.289Z</time>
      </trkpt>
      <trkpt lat="48.36497" lon="-3.73817">
        <ele>160.7</ele>
        <time>2021-11-21T14:46:42.889Z</time>
      </trkpt>
      <trkpt lat="48.36499" lon="-3.73846">
        <ele>158.4</ele>
        <time>2021-11-21T14:46:45.057Z</time>
      </trkpt>
      <trkpt lat="48.36499" lon="-3.73879">
        <ele>155.1</ele>
        <time>2021-11-21T14:46:47.477Z</time>
      </trkpt>
      <trkpt lat="48.36505" lon="-3.73901">
        <ele>150.9</ele>
        <time>2021-11-21T14:46:49.261Z</time>
      </trkpt>
      <trkpt lat="48.3651" lon="-3.7388">
        <ele>151.3</ele>
        <time>2021-11-21T14:46:50.967Z</time>
      </trkpt>
      <trkpt lat="48.36525" lon="-3.73809">
        <ele>148</ele>
        <time>2021-11-21T14:46:56.478Z</time>
      </trkpt>
      <trkpt lat="48.36531" lon="-3.73775">
        <ele>146</ele>
        <time>2021-11-21T14:46:59.014Z</time>
      </trkpt>
      <trkpt lat="48.36536" lon="-3.73745">
        <ele>147.4</ele>
        <time>2021-11-21T14:47:01.289Z</time>
      </trkpt>
      <trkpt lat="48.3654" lon="-3.73723">
        <ele>147.6</ele>
        <time>2021-11-21T14:47:03.035Z</time>
      </trkpt>
      <trkpt lat="48.36544" lon="-3.73702">
        <ele>147</ele>
        <time>2021-11-21T14:47:04.621Z</time>
      </trkpt>
      <trkpt lat="48.3655" lon="-3.73681">
        <ele>144.5</ele>
        <time>2021-11-21T14:47:06.312Z</time>
      </trkpt>
      <trkpt lat="48.36557" lon="-3.73662">
        <ele>142.2</ele>
        <time>2021-11-21T14:47:07.926Z</time>
      </trkpt>
      <trkpt lat="48.36564" lon="-3.73653">
        <ele>141.1</ele>
        <time>2021-11-21T14:47:08.917Z</time>
      </trkpt>
      <trkpt lat="48.3657" lon="-3.73645">
        <ele>140.9</ele>
        <time>2021-11-21T14:47:09.813Z</time>
      </trkpt>
      <trkpt lat="48.36579" lon="-3.73635">
        <ele>140.1</ele>
        <time>2021-11-21T14:47:11.026Z</time>
      </trkpt>
      <trkpt lat="48.36591" lon="-3.73629">
        <ele>139</ele>
        <time>2021-11-21T14:47:12.526Z</time>
      </trkpt>
      <trkpt lat="48.36601" lon="-3.73628">
        <ele>138.6</ele>
        <time>2021-11-21T14:47:13.557Z</time>
      </trkpt>
      <trkpt lat="48.36606" lon="-3.73626">
        <ele>138.5</ele>
        <time>2021-11-21T14:47:14.161Z</time>
      </trkpt>
      <trkpt lat="48.36609" lon="-3.73624">
        <ele>139.1</ele>
        <time>2021-11-21T14:47:14.564Z</time>
      </trkpt>
      <trkpt lat="48.36614" lon="-3.73618">
        <ele>139.9</ele>
        <time>2021-11-21T14:47:15.241Z</time>
      </trkpt>
      <trkpt lat="48.36617" lon="-3.73614">
        <ele>140.3</ele>
        <time>2021-11-21T14:47:15.660Z</time>
      </trkpt>
      <trkpt lat="48.3662" lon="-3.73607">
        <ele>140.4</ele>
        <time>2021-11-21T14:47:16.301Z</time>
      </trkpt>
      <trkpt lat="48.36622" lon="-3.73599">
        <ele>140.2</ele>
        <time>2021-11-21T14:47:16.895Z</time>
      </trkpt>
      <trkpt lat="48.36624" lon="-3.73586">
        <ele>139.7</ele>
        <time>2021-11-21T14:47:17.921Z</time>
      </trkpt>
      <trkpt lat="48.36623" lon="-3.73571">
        <ele>139.2</ele>
        <time>2021-11-21T14:47:19.012Z</time>
      </trkpt>
      <trkpt lat="48.36623" lon="-3.73556">
        <ele>139.4</ele>
        <time>2021-11-21T14:47:20.142Z</time>
      </trkpt>
      <trkpt lat="48.36624" lon="-3.73547">
        <ele>139.5</ele>
        <time>2021-11-21T14:47:20.842Z</time>
      </trkpt>
      <trkpt lat="48.36625" lon="-3.73536">
        <ele>139.6</ele>
        <time>2021-11-21T14:47:21.629Z</time>
      </trkpt>
      <trkpt lat="48.36627" lon="-3.7352">
        <ele>139.6</ele>
        <time>2021-11-21T14:47:22.876Z</time>
      </trkpt>
      <trkpt lat="48.36635" lon="-3.73482">
        <ele>139.9</ele>
        <time>2021-11-21T14:47:25.833Z</time>
      </trkpt>
      <trkpt lat="48.36647" lon="-3.73429">
        <ele>139.8</ele>
        <time>2021-11-21T14:47:29.962Z</time>
      </trkpt>
      <trkpt lat="48.36651" lon="-3.73417">
        <ele>139.9</ele>
        <time>2021-11-21T14:47:30.970Z</time>
      </trkpt>
      <trkpt lat="48.36653" lon="-3.73406">
        <ele>140</ele>
        <time>2021-11-21T14:47:31.767Z</time>
      </trkpt>
      <trkpt lat="48.36659" lon="-3.73379">
        <ele>140</ele>
        <time>2021-11-21T14:47:33.945Z</time>
      </trkpt>
      <trkpt lat="48.36661" lon="-3.73363">
        <ele>140.2</ele>
        <time>2021-11-21T14:47:35.147Z</time>
      </trkpt>
      <trkpt lat="48.36661" lon="-3.73351">
        <ele>140.3</ele>
        <time>2021-11-21T14:47:36.067Z</time>
      </trkpt>
      <trkpt lat="48.36657" lon="-3.73337">
        <ele>140.6</ele>
        <time>2021-11-21T14:47:37.154Z</time>
      </trkpt>
      <trkpt lat="48.3665" lon="-3.73324">
        <ele>141.5</ele>
        <time>2021-11-21T14:47:38.381Z</time>
      </trkpt>
      <trkpt lat="48.36662" lon="-3.73314">
        <ele>142.2</ele>
        <time>2021-11-21T14:47:39.855Z</time>
      </trkpt>
      <trkpt lat="48.36669" lon="-3.73302">
        <ele>143.1</ele>
        <time>2021-11-21T14:47:41.089Z</time>
      </trkpt>
      <trkpt lat="48.36673" lon="-3.73287">
        <ele>144.5</ele>
        <time>2021-11-21T14:47:42.270Z</time>
      </trkpt>
      <trkpt lat="48.36674" lon="-3.73276">
        <ele>145.6</ele>
        <time>2021-11-21T14:47:43.147Z</time>
      </trkpt>
      <trkpt lat="48.36673" lon="-3.73272">
        <ele>145.8</ele>
        <time>2021-11-21T14:47:43.424Z</time>
      </trkpt>
      <trkpt lat="48.36673" lon="-3.73264">
        <ele>146.4</ele>
        <time>2021-11-21T14:47:44.022Z</time>
      </trkpt>
      <trkpt lat="48.3667" lon="-3.73246">
        <ele>148.6</ele>
        <time>2021-11-21T14:47:45.376Z</time>
      </trkpt>
      <trkpt lat="48.3666" lon="-3.73219">
        <ele>151.4</ele>
        <time>2021-11-21T14:47:47.680Z</time>
      </trkpt>
      <trkpt lat="48.36653" lon="-3.73206">
        <ele>153.2</ele>
        <time>2021-11-21T14:47:48.930Z</time>
      </trkpt>
      <trkpt lat="48.36651" lon="-3.73196">
        <ele>153.9</ele>
        <time>2021-11-21T14:47:49.661Z</time>
      </trkpt>
      <trkpt lat="48.3665" lon="-3.73184">
        <ele>154.6</ele>
        <time>2021-11-21T14:47:50.548Z</time>
      </trkpt>
      <trkpt lat="48.36644" lon="-3.73178">
        <ele>155.3</ele>
        <time>2021-11-21T14:47:51.358Z</time>
      </trkpt>
      <trkpt lat="48.36643" lon="-3.73141">
        <ele>156.5</ele>
        <time>2021-11-21T14:47:54.050Z</time>
      </trkpt>
      <trkpt lat="48.36644" lon="-3.73114">
        <ele>158.5</ele>
        <time>2021-11-21T14:47:56.046Z</time>
      </trkpt>
      <trkpt lat="48.36643" lon="-3.731">
        <ele>159.7</ele>
        <time>2021-11-21T14:47:57.112Z</time>
      </trkpt>
      <trkpt lat="48.36647" lon="-3.72966">
        <ele>170.6</ele>
        <time>2021-11-21T14:48:07.118Z</time>
      </trkpt>
      <trkpt lat="48.36648" lon="-3.72954">
        <ele>171.1</ele>
        <time>2021-11-21T14:48:07.979Z</time>
      </trkpt>
      <trkpt lat="48.36659" lon="-3.72894">
        <ele>176.3</ele>
        <time>2021-11-21T14:48:12.664Z</time>
      </trkpt>
      <trkpt lat="48.36662" lon="-3.72861">
        <ele>178.1</ele>
        <time>2021-11-21T14:48:15.068Z</time>
      </trkpt>
      <trkpt lat="48.36661" lon="-3.72826">
        <ele>178.4</ele>
        <time>2021-11-21T14:48:17.704Z</time>
      </trkpt>
      <trkpt lat="48.36661" lon="-3.72786">
        <ele>178.2</ele>
        <time>2021-11-21T14:48:20.641Z</time>
      </trkpt>
      <trkpt lat="48.36662" lon="-3.7275">
        <ele>178.9</ele>
        <time>2021-11-21T14:48:23.321Z</time>
      </trkpt>
      <trkpt lat="48.3667" lon="-3.72673">
        <ele>178.1</ele>
        <time>2021-11-21T14:48:29.045Z</time>
      </trkpt>
      <trkpt lat="48.36674" lon="-3.72644">
        <ele>177.3</ele>
        <time>2021-11-21T14:48:31.289Z</time>
      </trkpt>
      <trkpt lat="48.3668" lon="-3.72612">
        <ele>177.2</ele>
        <time>2021-11-21T14:48:33.720Z</time>
      </trkpt>
      <trkpt lat="48.36685" lon="-3.72581">
        <ele>177.2</ele>
        <time>2021-11-21T14:48:36.099Z</time>
      </trkpt>
      <trkpt lat="48.36688" lon="-3.72531">
        <ele>177.1</ele>
        <time>2021-11-21T14:48:39.783Z</time>
      </trkpt>
      <trkpt lat="48.36691" lon="-3.72497">
        <ele>178</ele>
        <time>2021-11-21T14:48:42.307Z</time>
      </trkpt>
      <trkpt lat="48.36697" lon="-3.72464">
        <ele>177.7</ele>
        <time>2021-11-21T14:48:44.839Z</time>
      </trkpt>
      <trkpt lat="48.36706" lon="-3.72439">
        <ele>176.5</ele>
        <time>2021-11-21T14:48:46.992Z</time>
      </trkpt>
      <trkpt lat="48.36718" lon="-3.72423">
        <ele>176</ele>
        <time>2021-11-21T14:48:48.786Z</time>
      </trkpt>
      <trkpt lat="48.36744" lon="-3.72396">
        <ele>175</ele>
        <time>2021-11-21T14:48:52.270Z</time>
      </trkpt>
      <trkpt lat="48.3676" lon="-3.72377">
        <ele>173.7</ele>
        <time>2021-11-21T14:48:54.497Z</time>
      </trkpt>
      <trkpt lat="48.36781" lon="-3.72339">
        <ele>170.2</ele>
        <time>2021-11-21T14:48:58.254Z</time>
      </trkpt>
      <trkpt lat="48.36789" lon="-3.72316">
        <ele>168</ele>
        <time>2021-11-21T14:49:00.166Z</time>
      </trkpt>
      <trkpt lat="48.36804" lon="-3.72273">
        <ele>163.6</ele>
        <time>2021-11-21T14:49:03.783Z</time>
      </trkpt>
      <trkpt lat="48.3681" lon="-3.72261">
        <ele>162.5</ele>
        <time>2021-11-21T14:49:04.920Z</time>
      </trkpt>
      <trkpt lat="48.36814" lon="-3.7226">
        <ele>162.4</ele>
        <time>2021-11-21T14:49:05.355Z</time>
      </trkpt>
      <trkpt lat="48.3684" lon="-3.72249">
        <ele>161.8</ele>
        <time>2021-11-21T14:49:08.362Z</time>
      </trkpt>
      <trkpt lat="48.36858" lon="-3.72243">
        <ele>162.8</ele>
        <time>2021-11-21T14:49:10.456Z</time>
      </trkpt>
      <trkpt lat="48.36886" lon="-3.72254">
        <ele>164.7</ele>
        <time>2021-11-21T14:49:13.689Z</time>
      </trkpt>
      <trkpt lat="48.36904" lon="-3.72268">
        <ele>166.1</ele>
        <time>2021-11-21T14:49:15.916Z</time>
      </trkpt>
      <trkpt lat="48.36927" lon="-3.72287">
        <ele>167.1</ele>
        <time>2021-11-21T14:49:18.895Z</time>
      </trkpt>
      <trkpt lat="48.36945" lon="-3.72305">
        <ele>167.2</ele>
        <time>2021-11-21T14:49:21.290Z</time>
      </trkpt>
      <trkpt lat="48.36967" lon="-3.72337">
        <ele>167</ele>
        <time>2021-11-21T14:49:24.690Z</time>
      </trkpt>
      <trkpt lat="48.36979" lon="-3.72354">
        <ele>167.4</ele>
        <time>2021-11-21T14:49:26.552Z</time>
      </trkpt>
      <trkpt lat="48.36991" lon="-3.72364">
        <ele>167.7</ele>
        <time>2021-11-21T14:49:28.073Z</time>
      </trkpt>
      <trkpt lat="48.37005" lon="-3.72368">
        <ele>168.8</ele>
        <time>2021-11-21T14:49:29.660Z</time>
      </trkpt>
      <trkpt lat="48.3703" lon="-3.72369">
        <ele>170.4</ele>
        <time>2021-11-21T14:49:32.411Z</time>
      </trkpt>
      <trkpt lat="48.37049" lon="-3.72373">
        <ele>171.9</ele>
        <time>2021-11-21T14:49:34.566Z</time>
      </trkpt>
      <trkpt lat="48.3707" lon="-3.72382">
        <ele>173.4</ele>
        <time>2021-11-21T14:49:36.978Z</time>
      </trkpt>
      <trkpt lat="48.3711" lon="-3.72407">
        <ele>178.9</ele>
        <time>2021-11-21T14:49:41.820Z</time>
      </trkpt>
      <trkpt lat="48.37153" lon="-3.72467">
        <ele>183.8</ele>
        <time>2021-11-21T14:49:48.323Z</time>
      </trkpt>
      <trkpt lat="48.37166" lon="-3.72486">
        <ele>184</ele>
        <time>2021-11-21T14:49:50.346Z</time>
      </trkpt>
      <trkpt lat="48.37169" lon="-3.72501">
        <ele>184.5</ele>
        <time>2021-11-21T14:49:51.491Z</time>
      </trkpt>
      <trkpt lat="48.37184" lon="-3.72549">
        <ele>186.5</ele>
        <time>2021-11-21T14:49:55.460Z</time>
      </trkpt>
      <trkpt lat="48.37191" lon="-3.7262">
        <ele>190.7</ele>
        <time>2021-11-21T14:50:00.783Z</time>
      </trkpt>
      <trkpt lat="48.37191" lon="-3.72643">
        <ele>193.4</ele>
        <time>2021-11-21T14:50:02.573Z</time>
      </trkpt>
      <trkpt lat="48.37234" lon="-3.72608">
        <ele>185.8</ele>
        <time>2021-11-21T14:50:08.036Z</time>
      </trkpt>
      <trkpt lat="48.37246" lon="-3.72593">
        <ele>184.7</ele>
        <time>2021-11-21T14:50:09.843Z</time>
      </trkpt>
      <trkpt lat="48.37257" lon="-3.72575">
        <ele>183.1</ele>
        <time>2021-11-21T14:50:11.610Z</time>
      </trkpt>
      <trkpt lat="48.37268" lon="-3.72557">
        <ele>181.4</ele>
        <time>2021-11-21T14:50:13.463Z</time>
      </trkpt>
      <trkpt lat="48.37285" lon="-3.72552">
        <ele>181.6</ele>
        <time>2021-11-21T14:50:15.355Z</time>
      </trkpt>
      <trkpt lat="48.37309" lon="-3.72549">
        <ele>180.7</ele>
        <time>2021-11-21T14:50:18.025Z</time>
      </trkpt>
      <trkpt lat="48.37346" lon="-3.72538">
        <ele>177.7</ele>
        <time>2021-11-21T14:50:22.284Z</time>
      </trkpt>
      <trkpt lat="48.37364" lon="-3.72533">
        <ele>176.5</ele>
        <time>2021-11-21T14:50:24.324Z</time>
      </trkpt>
      <trkpt lat="48.37375" lon="-3.72525">
        <ele>176.3</ele>
        <time>2021-11-21T14:50:25.654Z</time>
      </trkpt>
      <trkpt lat="48.37389" lon="-3.7251">
        <ele>176.4</ele>
        <time>2021-11-21T14:50:27.542Z</time>
      </trkpt>
      <trkpt lat="48.37396" lon="-3.72496">
        <ele>175.6</ele>
        <time>2021-11-21T14:50:28.820Z</time>
      </trkpt>
      <trkpt lat="48.37413" lon="-3.72461">
        <ele>174.7</ele>
        <time>2021-11-21T14:50:32.064Z</time>
      </trkpt>
      <trkpt lat="48.37432" lon="-3.72416">
        <ele>177.1</ele>
        <time>2021-11-21T14:50:36.019Z</time>
      </trkpt>
      <trkpt lat="48.37442" lon="-3.72385">
        <ele>176.8</ele>
        <time>2021-11-21T14:50:38.585Z</time>
      </trkpt>
      <trkpt lat="48.37457" lon="-3.72354">
        <ele>176.9</ele>
        <time>2021-11-21T14:50:41.393Z</time>
      </trkpt>
      <trkpt lat="48.37466" lon="-3.72344">
        <ele>177.2</ele>
        <time>2021-11-21T14:50:42.668Z</time>
      </trkpt>
      <trkpt lat="48.37478" lon="-3.72336">
        <ele>177.4</ele>
        <time>2021-11-21T14:50:44.083Z</time>
      </trkpt>
      <trkpt lat="48.37497" lon="-3.72323">
        <ele>177.7</ele>
        <time>2021-11-21T14:50:46.444Z</time>
      </trkpt>
      <trkpt lat="48.37534" lon="-3.72311">
        <ele>176.1</ele>
        <time>2021-11-21T14:50:50.619Z</time>
      </trkpt>
      <trkpt lat="48.37565" lon="-3.723">
        <ele>176.3</ele>
        <time>2021-11-21T14:50:54.174Z</time>
      </trkpt>
      <trkpt lat="48.37607" lon="-3.72289">
        <ele>177.1</ele>
        <time>2021-11-21T14:50:58.886Z</time>
      </trkpt>
      <trkpt lat="48.37627" lon="-3.72286">
        <ele>177.2</ele>
        <time>2021-11-21T14:51:01.184Z</time>
      </trkpt>
      <trkpt lat="48.37644" lon="-3.72286">
        <ele>177.6</ele>
        <time>2021-11-21T14:51:03.086Z</time>
      </trkpt>
      <trkpt lat="48.37658" lon="-3.72288">
        <ele>178.2</ele>
        <time>2021-11-21T14:51:04.611Z</time>
      </trkpt>
      <trkpt lat="48.37664" lon="-3.72284">
        <ele>178.1</ele>
        <time>2021-11-21T14:51:05.406Z</time>
      </trkpt>
      <trkpt lat="48.37703" lon="-3.72291">
        <ele>178.8</ele>
        <time>2021-11-21T14:51:09.734Z</time>
      </trkpt>
      <trkpt lat="48.37749" lon="-3.72302">
        <ele>178.3</ele>
        <time>2021-11-21T14:51:14.925Z</time>
      </trkpt>
      <trkpt lat="48.37794" lon="-3.72313">
        <ele>177.6</ele>
        <time>2021-11-21T14:51:20.021Z</time>
      </trkpt>
      <trkpt lat="48.37815" lon="-3.72318">
        <ele>176.9</ele>
        <time>2021-11-21T14:51:22.416Z</time>
      </trkpt>
      <trkpt lat="48.37838" lon="-3.72326">
        <ele>176.2</ele>
        <time>2021-11-21T14:51:24.952Z</time>
      </trkpt>
      <trkpt lat="48.37854" lon="-3.72336">
        <ele>176</ele>
        <time>2021-11-21T14:51:26.930Z</time>
      </trkpt>
      <trkpt lat="48.37867" lon="-3.72343">
        <ele>175.3</ele>
        <time>2021-11-21T14:51:28.487Z</time>
      </trkpt>
      <trkpt lat="48.37881" lon="-3.72351">
        <ele>175.4</ele>
        <time>2021-11-21T14:51:30.182Z</time>
      </trkpt>
      <trkpt lat="48.37905" lon="-3.72375">
        <ele>177.8</ele>
        <time>2021-11-21T14:51:33.311Z</time>
      </trkpt>
      <trkpt lat="48.37927" lon="-3.72405">
        <ele>179.8</ele>
        <time>2021-11-21T14:51:36.578Z</time>
      </trkpt>
      <trkpt lat="48.37966" lon="-3.72447">
        <ele>181</ele>
        <time>2021-11-21T14:51:41.973Z</time>
      </trkpt>
      <trkpt lat="48.37998" lon="-3.72477">
        <ele>179.9</ele>
        <time>2021-11-21T14:51:46.178Z</time>
      </trkpt>
      <trkpt lat="48.38008" lon="-3.72486">
        <ele>179.3</ele>
        <time>2021-11-21T14:51:47.445Z</time>
      </trkpt>
      <trkpt lat="48.38014" lon="-3.72494">
        <ele>179.1</ele>
        <time>2021-11-21T14:51:48.342Z</time>
      </trkpt>
      <trkpt lat="48.38019" lon="-3.72514">
        <ele>178.9</ele>
        <time>2021-11-21T14:51:49.957Z</time>
      </trkpt>
      <trkpt lat="48.38038" lon="-3.72576">
        <ele>175.4</ele>
        <time>2021-11-21T14:51:55.018Z</time>
      </trkpt>
      <trkpt lat="48.38054" lon="-3.726">
        <ele>173.9</ele>
        <time>2021-11-21T14:51:57.578Z</time>
      </trkpt>
      <trkpt lat="48.38078" lon="-3.72624">
        <ele>174.2</ele>
        <time>2021-11-21T14:52:00.761Z</time>
      </trkpt>
      <trkpt lat="48.38103" lon="-3.72632">
        <ele>173.9</ele>
        <time>2021-11-21T14:52:03.581Z</time>
      </trkpt>
      <trkpt lat="48.38127" lon="-3.72646">
        <ele>176.9</ele>
        <time>2021-11-21T14:52:06.434Z</time>
      </trkpt>
      <trkpt lat="48.38142" lon="-3.72648">
        <ele>177</ele>
        <time>2021-11-21T14:52:08.143Z</time>
      </trkpt>
      <trkpt lat="48.38165" lon="-3.72662">
        <ele>180</ele>
        <time>2021-11-21T14:52:10.892Z</time>
      </trkpt>
      <trkpt lat="48.38165" lon="-3.72661">
        <ele>179.8</ele>
        <time>2021-11-21T14:52:10.965Z</time>
      </trkpt>
      <trkpt lat="48.38216" lon="-3.72681">
        <ele>180.6</ele>
        <time>2021-11-21T14:52:16.902Z</time>
      </trkpt>
      <trkpt lat="48.38278" lon="-3.72707">
        <ele>180.7</ele>
        <time>2021-11-21T14:52:24.146Z</time>
      </trkpt>
      <trkpt lat="48.38317" lon="-3.72752">
        <ele>185.1</ele>
        <time>2021-11-21T14:52:29.526Z</time>
      </trkpt>
      <trkpt lat="48.38407" lon="-3.72819">
        <ele>187.6</ele>
        <time>2021-11-21T14:52:40.707Z</time>
      </trkpt>
      <trkpt lat="48.38433" lon="-3.72852">
        <ele>188.8</ele>
        <time>2021-11-21T14:52:44.479Z</time>
      </trkpt>
      <trkpt lat="48.38444" lon="-3.72876">
        <ele>190.6</ele>
        <time>2021-11-21T14:52:46.654Z</time>
      </trkpt>
      <trkpt lat="48.38453" lon="-3.72917">
        <ele>193.1</ele>
        <time>2021-11-21T14:52:49.874Z</time>
      </trkpt>
      <trkpt lat="48.3846" lon="-3.73004">
        <ele>200.7</ele>
        <time>2021-11-21T14:52:56.477Z</time>
      </trkpt>
      <trkpt lat="48.38458" lon="-3.73037">
        <ele>203.2</ele>
        <time>2021-11-21T14:52:58.938Z</time>
      </trkpt>
      <trkpt lat="48.38467" lon="-3.73035">
        <ele>202.1</ele>
        <time>2021-11-21T14:52:59.946Z</time>
      </trkpt>
      <trkpt lat="48.38474" lon="-3.73026">
        <ele>202.4</ele>
        <time>2021-11-21T14:53:00.909Z</time>
      </trkpt>
      <trkpt lat="48.38478" lon="-3.73018">
        <ele>202.7</ele>
        <time>2021-11-21T14:53:01.676Z</time>
      </trkpt>
      <trkpt lat="48.38486" lon="-3.7299">
        <ele>201.9</ele>
        <time>2021-11-21T14:53:03.937Z</time>
      </trkpt>
      <trkpt lat="48.38492" lon="-3.7297">
        <ele>200.5</ele>
        <time>2021-11-21T14:53:05.600Z</time>
      </trkpt>
      <trkpt lat="48.38497" lon="-3.7296">
        <ele>200.2</ele>
        <time>2021-11-21T14:53:06.466Z</time>
      </trkpt>
      <trkpt lat="48.38504" lon="-3.72953">
        <ele>200.6</ele>
        <time>2021-11-21T14:53:07.511Z</time>
      </trkpt>
      <trkpt lat="48.38523" lon="-3.72944">
        <ele>201.4</ele>
        <time>2021-11-21T14:53:09.675Z</time>
      </trkpt>
      <trkpt lat="48.38538" lon="-3.72938">
        <ele>203.5</ele>
        <time>2021-11-21T14:53:11.446Z</time>
      </trkpt>
      <trkpt lat="48.386" lon="-3.72915">
        <ele>207.8</ele>
        <time>2021-11-21T14:53:18.525Z</time>
      </trkpt>
      <trkpt lat="48.38619" lon="-3.72902">
        <ele>210</ele>
        <time>2021-11-21T14:53:20.884Z</time>
      </trkpt>
      <trkpt lat="48.3863" lon="-3.72888">
        <ele>210.6</ele>
        <time>2021-11-21T14:53:22.532Z</time>
      </trkpt>
      <trkpt lat="48.3865" lon="-3.72849">
        <ele>210</ele>
        <time>2021-11-21T14:53:26.154Z</time>
      </trkpt>
      <trkpt lat="48.38668" lon="-3.72812">
        <ele>209.6</ele>
        <time>2021-11-21T14:53:29.489Z</time>
      </trkpt>
      <trkpt lat="48.38673" lon="-3.72797">
        <ele>211</ele>
        <time>2021-11-21T14:53:30.730Z</time>
      </trkpt>
      <trkpt lat="48.38675" lon="-3.7278">
        <ele>211.4</ele>
        <time>2021-11-21T14:53:32.071Z</time>
      </trkpt>
      <trkpt lat="48.38676" lon="-3.72745">
        <ele>210.6</ele>
        <time>2021-11-21T14:53:34.685Z</time>
      </trkpt>
      <trkpt lat="48.38675" lon="-3.72732">
        <ele>210.2</ele>
        <time>2021-11-21T14:53:35.612Z</time>
      </trkpt>
      <trkpt lat="48.38676" lon="-3.72719">
        <ele>210.1</ele>
        <time>2021-11-21T14:53:36.589Z</time>
      </trkpt>
      <trkpt lat="48.38679" lon="-3.72708">
        <ele>210</ele>
        <time>2021-11-21T14:53:37.529Z</time>
      </trkpt>
      <trkpt lat="48.38684" lon="-3.72694">
        <ele>209.7</ele>
        <time>2021-11-21T14:53:38.751Z</time>
      </trkpt>
      <trkpt lat="48.38709" lon="-3.72666">
        <ele>208.8</ele>
        <time>2021-11-21T14:53:42.222Z</time>
      </trkpt>
      <trkpt lat="48.38711" lon="-3.72672">
        <ele>210</ele>
        <time>2021-11-21T14:53:42.737Z</time>
      </trkpt>
      <trkpt lat="48.38705" lon="-3.72687">
        <ele>212</ele>
        <time>2021-11-21T14:53:43.994Z</time>
      </trkpt>
      <trkpt lat="48.38698" lon="-3.72704">
        <ele>213</ele>
        <time>2021-11-21T14:53:45.514Z</time>
      </trkpt>
      <trkpt lat="48.38693" lon="-3.72724">
        <ele>214.4</ele>
        <time>2021-11-21T14:53:47.091Z</time>
      </trkpt>
      <trkpt lat="48.3869" lon="-3.72738">
        <ele>214.7</ele>
        <time>2021-11-21T14:53:48.226Z</time>
      </trkpt>
      <trkpt lat="48.38687" lon="-3.72853">
        <ele>220.9</ele>
        <time>2021-11-21T14:53:56.800Z</time>
      </trkpt>
      <trkpt lat="48.38673" lon="-3.72897">
        <ele>220.9</ele>
        <time>2021-11-21T14:54:00.355Z</time>
      </trkpt>
      <trkpt lat="48.38667" lon="-3.72917">
        <ele>221.2</ele>
        <time>2021-11-21T14:54:02.007Z</time>
      </trkpt>
      <trkpt lat="48.38648" lon="-3.72956">
        <ele>221.1</ele>
        <time>2021-11-21T14:54:05.574Z</time>
      </trkpt>
      <trkpt lat="48.38641" lon="-3.73003">
        <ele>224.6</ele>
        <time>2021-11-21T14:54:09.119Z</time>
      </trkpt>
      <trkpt lat="48.38635" lon="-3.73051">
        <ele>227.7</ele>
        <time>2021-11-21T14:54:12.744Z</time>
      </trkpt>
      <trkpt lat="48.38652" lon="-3.73037">
        <ele>228.9</ele>
        <time>2021-11-21T14:54:14.929Z</time>
      </trkpt>
      <trkpt lat="48.3867" lon="-3.73019">
        <ele>229.1</ele>
        <time>2021-11-21T14:54:17.332Z</time>
      </trkpt>
      <trkpt lat="48.38697" lon="-3.72995">
        <ele>231</ele>
        <time>2021-11-21T14:54:20.864Z</time>
      </trkpt>
      <trkpt lat="48.38729" lon="-3.72963">
        <ele>233.9</ele>
        <time>2021-11-21T14:54:25.099Z</time>
      </trkpt>
      <trkpt lat="48.38745" lon="-3.72951">
        <ele>235.5</ele>
        <time>2021-11-21T14:54:27.096Z</time>
      </trkpt>
      <trkpt lat="48.38758" lon="-3.72948">
        <ele>237.1</ele>
        <time>2021-11-21T14:54:28.587Z</time>
      </trkpt>
      <trkpt lat="48.38775" lon="-3.7295">
        <ele>239.4</ele>
        <time>2021-11-21T14:54:30.487Z</time>
      </trkpt>
      <trkpt lat="48.38792" lon="-3.72956">
        <ele>241.7</ele>
        <time>2021-11-21T14:54:32.432Z</time>
      </trkpt>
      <trkpt lat="48.3884" lon="-3.73003">
        <ele>246.6</ele>
        <time>2021-11-21T14:54:38.825Z</time>
      </trkpt>
      <trkpt lat="48.38882" lon="-3.73048">
        <ele>248.9</ele>
        <time>2021-11-21T14:54:44.519Z</time>
      </trkpt>
      <trkpt lat="48.38896" lon="-3.73073">
        <ele>249</ele>
        <time>2021-11-21T14:54:46.915Z</time>
      </trkpt>
      <trkpt lat="48.38902" lon="-3.73083">
        <ele>248.9</ele>
        <time>2021-11-21T14:54:47.938Z</time>
      </trkpt>
      <trkpt lat="48.38911" lon="-3.73098">
        <ele>249.1</ele>
        <time>2021-11-21T14:54:49.442Z</time>
      </trkpt>
      <trkpt lat="48.38917" lon="-3.73109">
        <ele>249.4</ele>
        <time>2021-11-21T14:54:50.529Z</time>
      </trkpt>
      <trkpt lat="48.38917" lon="-3.73138">
        <ele>249</ele>
        <time>2021-11-21T14:54:52.694Z</time>
      </trkpt>
      <trkpt lat="48.38917" lon="-3.73171">
        <ele>247.1</ele>
        <time>2021-11-21T14:54:55.112Z</time>
      </trkpt>
      <trkpt lat="48.38916" lon="-3.73232">
        <ele>242.8</ele>
        <time>2021-11-21T14:54:59.650Z</time>
      </trkpt>
      <trkpt lat="48.38914" lon="-3.73256">
        <ele>241.3</ele>
        <time>2021-11-21T14:55:01.428Z</time>
      </trkpt>
      <trkpt lat="48.38916" lon="-3.73272">
        <ele>240.5</ele>
        <time>2021-11-21T14:55:02.563Z</time>
      </trkpt>
      <trkpt lat="48.38918" lon="-3.73275">
        <ele>240.3</ele>
        <time>2021-11-21T14:55:02.920Z</time>
      </trkpt>
      <trkpt lat="48.38926" lon="-3.73282">
        <ele>239.9</ele>
        <time>2021-11-21T14:55:03.885Z</time>
      </trkpt>
      <trkpt lat="48.38948" lon="-3.7329">
        <ele>240.5</ele>
        <time>2021-11-21T14:55:06.427Z</time>
      </trkpt>
      <trkpt lat="48.38988" lon="-3.73295">
        <ele>242.3</ele>
        <time>2021-11-21T14:55:10.955Z</time>
      </trkpt>
      <trkpt lat="48.39023" lon="-3.73303">
        <ele>243.9</ele>
        <time>2021-11-21T14:55:14.932Z</time>
      </trkpt>
      <trkpt lat="48.3904" lon="-3.73309">
        <ele>245.1</ele>
        <time>2021-11-21T14:55:16.797Z</time>
      </trkpt>
      <trkpt lat="48.39045" lon="-3.73313">
        <ele>245.2</ele>
        <time>2021-11-21T14:55:17.483Z</time>
      </trkpt>
      <trkpt lat="48.39051" lon="-3.73336">
        <ele>244.2</ele>
        <time>2021-11-21T14:55:19.332Z</time>
      </trkpt>
      <trkpt lat="48.39056" lon="-3.73357">
        <ele>243.3</ele>
        <time>2021-11-21T14:55:20.963Z</time>
      </trkpt>
      <trkpt lat="48.39058" lon="-3.73374">
        <ele>242.4</ele>
        <time>2021-11-21T14:55:22.255Z</time>
      </trkpt>
      <trkpt lat="48.39066" lon="-3.73476">
        <ele>239</ele>
        <time>2021-11-21T14:55:29.842Z</time>
      </trkpt>
      <trkpt lat="48.3906" lon="-3.73481">
        <ele>238.4</ele>
        <time>2021-11-21T14:55:30.660Z</time>
      </trkpt>
      <trkpt lat="48.39056" lon="-3.73484">
        <ele>238.1</ele>
        <time>2021-11-21T14:55:31.122Z</time>
      </trkpt>
      <trkpt lat="48.39054" lon="-3.73489">
        <ele>237.9</ele>
        <time>2021-11-21T14:55:31.572Z</time>
      </trkpt>
      <trkpt lat="48.39053" lon="-3.73494">
        <ele>237.7</ele>
        <time>2021-11-21T14:55:31.974Z</time>
      </trkpt>
      <trkpt lat="48.39054" lon="-3.73502">
        <ele>237.5</ele>
        <time>2021-11-21T14:55:32.543Z</time>
      </trkpt>
      <trkpt lat="48.39055" lon="-3.73509">
        <ele>237.4</ele>
        <time>2021-11-21T14:55:33.119Z</time>
      </trkpt>
      <trkpt lat="48.39059" lon="-3.73518">
        <ele>237.4</ele>
        <time>2021-11-21T14:55:33.925Z</time>
      </trkpt>
      <trkpt lat="48.39063" lon="-3.73539">
        <ele>236.8</ele>
        <time>2021-11-21T14:55:35.494Z</time>
      </trkpt>
      <trkpt lat="48.39065" lon="-3.73544">
        <ele>236.7</ele>
        <time>2021-11-21T14:55:35.967Z</time>
      </trkpt>
      <trkpt lat="48.39066" lon="-3.73549">
        <ele>236.7</ele>
        <time>2021-11-21T14:55:36.324Z</time>
      </trkpt>
      <trkpt lat="48.39069" lon="-3.7355">
        <ele>236.9</ele>
        <time>2021-11-21T14:55:36.668Z</time>
      </trkpt>
      <trkpt lat="48.39073" lon="-3.7355">
        <ele>237.2</ele>
        <time>2021-11-21T14:55:37.102Z</time>
      </trkpt>
      <trkpt lat="48.3908" lon="-3.73552">
        <ele>237.5</ele>
        <time>2021-11-21T14:55:37.823Z</time>
      </trkpt>
      <trkpt lat="48.39089" lon="-3.73557">
        <ele>237.8</ele>
        <time>2021-11-21T14:55:38.894Z</time>
      </trkpt>
      <trkpt lat="48.39093" lon="-3.73562">
        <ele>238</ele>
        <time>2021-11-21T14:55:39.515Z</time>
      </trkpt>
      <trkpt lat="48.39103" lon="-3.73572">
        <ele>239.6</ele>
        <time>2021-11-21T14:55:40.862Z</time>
      </trkpt>
      <trkpt lat="48.3912" lon="-3.73599">
        <ele>241.6</ele>
        <time>2021-11-21T14:55:43.576Z</time>
      </trkpt>
      <trkpt lat="48.39156" lon="-3.7366">
        <ele>243.4</ele>
        <time>2021-11-21T14:55:49.637Z</time>
      </trkpt>
      <trkpt lat="48.39182" lon="-3.73702">
        <ele>244.3</ele>
        <time>2021-11-21T14:55:53.924Z</time>
      </trkpt>
      <trkpt lat="48.39221" lon="-3.73765">
        <ele>242.7</ele>
        <time>2021-11-21T14:56:00.261Z</time>
      </trkpt>
      <trkpt lat="48.39253" lon="-3.73816">
        <ele>240.2</ele>
        <time>2021-11-21T14:56:05.430Z</time>
      </trkpt>
      <trkpt lat="48.39286" lon="-3.73869">
        <ele>238.8</ele>
        <time>2021-11-21T14:56:10.840Z</time>
      </trkpt>
      <trkpt lat="48.393" lon="-3.73858">
        <ele>241.4</ele>
        <time>2021-11-21T14:56:12.570Z</time>
      </trkpt>
      <trkpt lat="48.39329" lon="-3.73822">
        <ele>245.2</ele>
        <time>2021-11-21T14:56:16.770Z</time>
      </trkpt>
      <trkpt lat="48.39397" lon="-3.73713">
        <ele>253</ele>
        <time>2021-11-21T14:56:27.792Z</time>
      </trkpt>
      <trkpt lat="48.39403" lon="-3.73702">
        <ele>253.8</ele>
        <time>2021-11-21T14:56:28.877Z</time>
      </trkpt>
      <trkpt lat="48.39424" lon="-3.73667">
        <ele>256</ele>
        <time>2021-11-21T14:56:32.321Z</time>
      </trkpt>
      <trkpt lat="48.39445" lon="-3.73628">
        <ele>257.9</ele>
        <time>2021-11-21T14:56:36.028Z</time>
      </trkpt>
      <trkpt lat="48.39456" lon="-3.73604">
        <ele>259</ele>
        <time>2021-11-21T14:56:38.185Z</time>
      </trkpt>
      <trkpt lat="48.39465" lon="-3.73575">
        <ele>258.2</ele>
        <time>2021-11-21T14:56:40.542Z</time>
      </trkpt>
      <trkpt lat="48.39471" lon="-3.73543">
        <ele>258</ele>
        <time>2021-11-21T14:56:43.070Z</time>
      </trkpt>
      <trkpt lat="48.39468" lon="-3.73529">
        <ele>257.8</ele>
        <time>2021-11-21T14:56:44.164Z</time>
      </trkpt>
      <trkpt lat="48.39469" lon="-3.73519">
        <ele>257.5</ele>
        <time>2021-11-21T14:56:44.869Z</time>
      </trkpt>
      <trkpt lat="48.39604" lon="-3.73254">
        <ele>240.7</ele>
        <time>2021-11-21T14:57:09.593Z</time>
      </trkpt>
      <trkpt lat="48.39613" lon="-3.73236">
        <ele>237.5</ele>
        <time>2021-11-21T14:57:11.207Z</time>
      </trkpt>
      <trkpt lat="48.39627" lon="-3.73223">
        <ele>234.8</ele>
        <time>2021-11-21T14:57:13.105Z</time>
      </trkpt>
      <trkpt lat="48.39628" lon="-3.73222">
        <ele>234.7</ele>
        <time>2021-11-21T14:57:13.249Z</time>
      </trkpt>
      <trkpt lat="48.3965" lon="-3.7321">
        <ele>231.5</ele>
        <time>2021-11-21T14:57:15.800Z</time>
      </trkpt>
      <trkpt lat="48.39686" lon="-3.73166">
        <ele>223</ele>
        <time>2021-11-21T14:57:20.996Z</time>
      </trkpt>
      <trkpt lat="48.39711" lon="-3.7314">
        <ele>217.8</ele>
        <time>2021-11-21T14:57:24.464Z</time>
      </trkpt>
      <trkpt lat="48.39749" lon="-3.7311">
        <ele>212.4</ele>
        <time>2021-11-21T14:57:29.295Z</time>
      </trkpt>
      <trkpt lat="48.39765" lon="-3.73107">
        <ele>212.3</ele>
        <time>2021-11-21T14:57:31.056Z</time>
      </trkpt>
      <trkpt lat="48.39795" lon="-3.73079">
        <ele>209.8</ele>
        <time>2021-11-21T14:57:35.074Z</time>
      </trkpt>
      <trkpt lat="48.39858" lon="-3.73011">
        <ele>205</ele>
        <time>2021-11-21T14:57:43.647Z</time>
      </trkpt>
      <trkpt lat="48.39873" lon="-3.72995">
        <ele>205.1</ele>
        <time>2021-11-21T14:57:45.675Z</time>
      </trkpt>
      <trkpt lat="48.39878" lon="-3.72988">
        <ele>205.3</ele>
        <time>2021-11-21T14:57:46.446Z</time>
      </trkpt>
      <trkpt lat="48.3988" lon="-3.72984">
        <ele>205.4</ele>
        <time>2021-11-21T14:57:46.830Z</time>
      </trkpt>
      <trkpt lat="48.39883" lon="-3.72974">
        <ele>205.5</ele>
        <time>2021-11-21T14:57:47.618Z</time>
      </trkpt>
      <trkpt lat="48.39883" lon="-3.72968">
        <ele>205.5</ele>
        <time>2021-11-21T14:57:48.060Z</time>
      </trkpt>
      <trkpt lat="48.39883" lon="-3.7296">
        <ele>205.5</ele>
        <time>2021-11-21T14:57:48.661Z</time>
      </trkpt>
      <trkpt lat="48.39883" lon="-3.72949">
        <ele>205.4</ele>
        <time>2021-11-21T14:57:49.487Z</time>
      </trkpt>
      <trkpt lat="48.39882" lon="-3.72934">
        <ele>205.7</ele>
        <time>2021-11-21T14:57:50.612Z</time>
      </trkpt>
      <trkpt lat="48.39882" lon="-3.72927">
        <ele>205.9</ele>
        <time>2021-11-21T14:57:51.131Z</time>
      </trkpt>
      <trkpt lat="48.39882" lon="-3.72922">
        <ele>206</ele>
        <time>2021-11-21T14:57:51.477Z</time>
      </trkpt>
      <trkpt lat="48.39883" lon="-3.72919">
        <ele>206.1</ele>
        <time>2021-11-21T14:57:51.751Z</time>
      </trkpt>
      <trkpt lat="48.39885" lon="-3.72916">
        <ele>206.3</ele>
        <time>2021-11-21T14:57:52.073Z</time>
      </trkpt>
      <trkpt lat="48.39896" lon="-3.72907">
        <ele>207.1</ele>
        <time>2021-11-21T14:57:53.469Z</time>
      </trkpt>
      <trkpt lat="48.3996" lon="-3.72866">
        <ele>212.9</ele>
        <time>2021-11-21T14:58:01.219Z</time>
      </trkpt>
      <trkpt lat="48.39972" lon="-3.72861">
        <ele>214</ele>
        <time>2021-11-21T14:58:02.650Z</time>
      </trkpt>
      <trkpt lat="48.3998" lon="-3.72871">
        <ele>214.4</ele>
        <time>2021-11-21T14:58:03.826Z</time>
      </trkpt>
      <trkpt lat="48.39987" lon="-3.72882">
        <ele>214.9</ele>
        <time>2021-11-21T14:58:04.976Z</time>
      </trkpt>
      <trkpt lat="48.3999" lon="-3.72888">
        <ele>215.1</ele>
        <time>2021-11-21T14:58:05.513Z</time>
      </trkpt>
      <trkpt lat="48.39993" lon="-3.72887">
        <ele>215.4</ele>
        <time>2021-11-21T14:58:05.861Z</time>
      </trkpt>
      <trkpt lat="48.40023" lon="-3.72865">
        <ele>218.3</ele>
        <time>2021-11-21T14:58:09.598Z</time>
      </trkpt>
      <trkpt lat="48.40023" lon="-3.72862">
        <ele>218.4</ele>
        <time>2021-11-21T14:58:09.809Z</time>
      </trkpt>
      <trkpt lat="48.40023" lon="-3.7286">
        <ele>218.4</ele>
        <time>2021-11-21T14:58:09.946Z</time>
      </trkpt>
      <trkpt lat="48.40019" lon="-3.72856">
        <ele>218.4</ele>
        <time>2021-11-21T14:58:10.494Z</time>
      </trkpt>
      <trkpt lat="48.40009" lon="-3.72848">
        <ele>218</ele>
        <time>2021-11-21T14:58:11.724Z</time>
      </trkpt>
      <trkpt lat="48.39999" lon="-3.72837">
        <ele>217.7</ele>
        <time>2021-11-21T14:58:13.090Z</time>
      </trkpt>
      <trkpt lat="48.39996" lon="-3.72823">
        <ele>218.2</ele>
        <time>2021-11-21T14:58:14.151Z</time>
      </trkpt>
      <trkpt lat="48.39993" lon="-3.72809">
        <ele>218.8</ele>
        <time>2021-11-21T14:58:15.267Z</time>
      </trkpt>
      <trkpt lat="48.39976" lon="-3.72697">
        <ele>221.6</ele>
        <time>2021-11-21T14:58:23.765Z</time>
      </trkpt>
      <trkpt lat="48.39974" lon="-3.72681">
        <ele>221.9</ele>
        <time>2021-11-21T14:58:24.964Z</time>
      </trkpt>
      <trkpt lat="48.39971" lon="-3.72663">
        <ele>222.3</ele>
        <time>2021-11-21T14:58:26.300Z</time>
      </trkpt>
      <trkpt lat="48.39959" lon="-3.72636">
        <ele>222</ele>
        <time>2021-11-21T14:58:28.687Z</time>
      </trkpt>
      <trkpt lat="48.39956" lon="-3.72618">
        <ele>221.8</ele>
        <time>2021-11-21T14:58:30.054Z</time>
      </trkpt>
      <trkpt lat="48.39954" lon="-3.72604">
        <ele>222.1</ele>
        <time>2021-11-21T14:58:31.105Z</time>
      </trkpt>
      <trkpt lat="48.39954" lon="-3.72591">
        <ele>222.4</ele>
        <time>2021-11-21T14:58:32.078Z</time>
      </trkpt>
      <trkpt lat="48.39957" lon="-3.72577">
        <ele>222.8</ele>
        <time>2021-11-21T14:58:33.201Z</time>
      </trkpt>
      <trkpt lat="48.39962" lon="-3.72555">
        <ele>222.9</ele>
        <time>2021-11-21T14:58:34.904Z</time>
      </trkpt>
      <trkpt lat="48.39977" lon="-3.7251">
        <ele>222.4</ele>
        <time>2021-11-21T14:58:38.601Z</time>
      </trkpt>
      <trkpt lat="48.39991" lon="-3.7247">
        <ele>221.6</ele>
        <time>2021-11-21T14:58:41.942Z</time>
      </trkpt>
      <trkpt lat="48.40007" lon="-3.72431">
        <ele>220.4</ele>
        <time>2021-11-21T14:58:45.312Z</time>
      </trkpt>
      <trkpt lat="48.40017" lon="-3.72407">
        <ele>220</ele>
        <time>2021-11-21T14:58:47.432Z</time>
      </trkpt>
      <trkpt lat="48.40032" lon="-3.72361">
        <ele>219.2</ele>
        <time>2021-11-21T14:58:51.186Z</time>
      </trkpt>
      <trkpt lat="48.40056" lon="-3.72307">
        <ele>217</ele>
        <time>2021-11-21T14:58:56.027Z</time>
      </trkpt>
      <trkpt lat="48.4009" lon="-3.7225">
        <ele>214.2</ele>
        <time>2021-11-21T14:59:01.704Z</time>
      </trkpt>
      <trkpt lat="48.40105" lon="-3.72216">
        <ele>212.2</ele>
        <time>2021-11-21T14:59:04.730Z</time>
      </trkpt>
      <trkpt lat="48.40113" lon="-3.72191">
        <ele>211.3</ele>
        <time>2021-11-21T14:59:06.733Z</time>
      </trkpt>
      <trkpt lat="48.40126" lon="-3.72133">
        <ele>211.1</ele>
        <time>2021-11-21T14:59:11.293Z</time>
      </trkpt>
      <trkpt lat="48.40094" lon="-3.72091">
        <ele>209.2</ele>
        <time>2021-11-21T14:59:16.051Z</time>
      </trkpt>
      <trkpt lat="48.40053" lon="-3.72039">
        <ele>208.7</ele>
        <time>2021-11-21T14:59:21.942Z</time>
      </trkpt>
      <trkpt lat="48.39978" lon="-3.71945">
        <ele>208.8</ele>
        <time>2021-11-21T14:59:32.842Z</time>
      </trkpt>
      <trkpt lat="48.39994" lon="-3.71921">
        <ele>210.1</ele>
        <time>2021-11-21T14:59:35.321Z</time>
      </trkpt>
      <trkpt lat="48.40027" lon="-3.71872">
        <ele>212.4</ele>
        <time>2021-11-21T14:59:40.494Z</time>
      </trkpt>
      <trkpt lat="48.40052" lon="-3.71839">
        <ele>214.1</ele>
        <time>2021-11-21T14:59:44.153Z</time>
      </trkpt>
      <trkpt lat="48.40064" lon="-3.71819">
        <ele>214</ele>
        <time>2021-11-21T14:59:46.195Z</time>
      </trkpt>
      <trkpt lat="48.4007" lon="-3.71806">
        <ele>213.9</ele>
        <time>2021-11-21T14:59:47.362Z</time>
      </trkpt>
      <trkpt lat="48.40079" lon="-3.71789">
        <ele>214.2</ele>
        <time>2021-11-21T14:59:48.963Z</time>
      </trkpt>
      <trkpt lat="48.40082" lon="-3.71786">
        <ele>214.3</ele>
        <time>2021-11-21T14:59:49.337Z</time>
      </trkpt>
      <trkpt lat="48.40084" lon="-3.71786">
        <ele>214.4</ele>
        <time>2021-11-21T14:59:49.623Z</time>
      </trkpt>
      <trkpt lat="48.40087" lon="-3.71786">
        <ele>214.6</ele>
        <time>2021-11-21T14:59:49.955Z</time>
      </trkpt>
      <trkpt lat="48.40097" lon="-3.71792">
        <ele>215</ele>
        <time>2021-11-21T14:59:51.145Z</time>
      </trkpt>
      <trkpt lat="48.40104" lon="-3.71796">
        <ele>215.1</ele>
        <time>2021-11-21T14:59:52.001Z</time>
      </trkpt>
      <trkpt lat="48.40115" lon="-3.71802">
        <ele>215.3</ele>
        <time>2021-11-21T14:59:53.219Z</time>
      </trkpt>
      <trkpt lat="48.40132" lon="-3.71809">
        <ele>215.5</ele>
        <time>2021-11-21T14:59:55.272Z</time>
      </trkpt>
      <trkpt lat="48.40169" lon="-3.71825">
        <ele>215.6</ele>
        <time>2021-11-21T14:59:59.508Z</time>
      </trkpt>
      <trkpt lat="48.40187" lon="-3.71833">
        <ele>215</ele>
        <time>2021-11-21T15:00:01.575Z</time>
      </trkpt>
      <trkpt lat="48.40198" lon="-3.7183">
        <ele>214.8</ele>
        <time>2021-11-21T15:00:02.773Z</time>
      </trkpt>
      <trkpt lat="48.40207" lon="-3.71826">
        <ele>214.5</ele>
        <time>2021-11-21T15:00:03.906Z</time>
      </trkpt>
      <trkpt lat="48.40213" lon="-3.71825">
        <ele>214.6</ele>
        <time>2021-11-21T15:00:04.538Z</time>
      </trkpt>
      <trkpt lat="48.40216" lon="-3.71811">
        <ele>213.6</ele>
        <time>2021-11-21T15:00:05.667Z</time>
      </trkpt>
      <trkpt lat="48.40319" lon="-3.71875">
        <ele>214.2</ele>
        <time>2021-11-21T15:00:18.145Z</time>
      </trkpt>
      <trkpt lat="48.40365" lon="-3.71905">
        <ele>213.6</ele>
        <time>2021-11-21T15:00:23.727Z</time>
      </trkpt>
      <trkpt lat="48.40413" lon="-3.7193">
        <ele>208.1</ele>
        <time>2021-11-21T15:00:29.304Z</time>
      </trkpt>
      <trkpt lat="48.40543" lon="-3.72">
        <ele>199.3</ele>
        <time>2021-11-21T15:00:44.689Z</time>
      </trkpt>
      <trkpt lat="48.40614" lon="-3.72042">
        <ele>200.2</ele>
        <time>2021-11-21T15:00:53.201Z</time>
      </trkpt>
      <trkpt lat="48.40638" lon="-3.72055">
        <ele>200</ele>
        <time>2021-11-21T15:00:56.021Z</time>
      </trkpt>
      <trkpt lat="48.4065" lon="-3.72062">
        <ele>199.8</ele>
        <time>2021-11-21T15:00:57.474Z</time>
      </trkpt>
      <trkpt lat="48.40666" lon="-3.72067">
        <ele>199.4</ele>
        <time>2021-11-21T15:00:59.284Z</time>
      </trkpt>
      <trkpt lat="48.40677" lon="-3.7207">
        <ele>198.9</ele>
        <time>2021-11-21T15:01:00.537Z</time>
      </trkpt>
      <trkpt lat="48.40739" lon="-3.72077">
        <ele>194</ele>
        <time>2021-11-21T15:01:07.487Z</time>
      </trkpt>
      <trkpt lat="48.40757" lon="-3.72089">
        <ele>193</ele>
        <time>2021-11-21T15:01:09.678Z</time>
      </trkpt>
      <trkpt lat="48.40788" lon="-3.72109">
        <ele>190.1</ele>
        <time>2021-11-21T15:01:13.432Z</time>
      </trkpt>
      <trkpt lat="48.40872" lon="-3.72166">
        <ele>181.9</ele>
        <time>2021-11-21T15:01:23.739Z</time>
      </trkpt>
      <trkpt lat="48.40906" lon="-3.72182">
        <ele>177.3</ele>
        <time>2021-11-21T15:01:27.667Z</time>
      </trkpt>
      <trkpt lat="48.40933" lon="-3.72202">
        <ele>173.2</ele>
        <time>2021-11-21T15:01:30.995Z</time>
      </trkpt>
      <trkpt lat="48.40949" lon="-3.72223">
        <ele>171.8</ele>
        <time>2021-11-21T15:01:33.404Z</time>
      </trkpt>
      <trkpt lat="48.40952" lon="-3.72231">
        <ele>171</ele>
        <time>2021-11-21T15:01:34.138Z</time>
      </trkpt>
      <trkpt lat="48.40956" lon="-3.72173">
        <ele>170.1</ele>
        <time>2021-11-21T15:01:38.493Z</time>
      </trkpt>
      <trkpt lat="48.40962" lon="-3.72113">
        <ele>168.9</ele>
        <time>2021-11-21T15:01:43.026Z</time>
      </trkpt>
      <trkpt lat="48.40963" lon="-3.72075">
        <ele>168.8</ele>
        <time>2021-11-21T15:01:45.847Z</time>
      </trkpt>
      <trkpt lat="48.40956" lon="-3.7204">
        <ele>169.2</ele>
        <time>2021-11-21T15:01:48.546Z</time>
      </trkpt>
      <trkpt lat="48.40948" lon="-3.71987">
        <ele>169.1</ele>
        <time>2021-11-21T15:01:52.533Z</time>
      </trkpt>
      <trkpt lat="48.40944" lon="-3.71934">
        <ele>167.7</ele>
        <time>2021-11-21T15:01:56.487Z</time>
      </trkpt>
      <trkpt lat="48.40939" lon="-3.71881">
        <ele>164</ele>
        <time>2021-11-21T15:02:00.447Z</time>
      </trkpt>
      <trkpt lat="48.40935" lon="-3.71861">
        <ele>162.5</ele>
        <time>2021-11-21T15:02:01.989Z</time>
      </trkpt>
      <trkpt lat="48.40929" lon="-3.71842">
        <ele>161</ele>
        <time>2021-11-21T15:02:03.521Z</time>
      </trkpt>
      <trkpt lat="48.40921" lon="-3.71824">
        <ele>159</ele>
        <time>2021-11-21T15:02:05.107Z</time>
      </trkpt>
      <trkpt lat="48.40911" lon="-3.71803">
        <ele>157.1</ele>
        <time>2021-11-21T15:02:07.094Z</time>
      </trkpt>
      <trkpt lat="48.40901" lon="-3.71783">
        <ele>156.2</ele>
        <time>2021-11-21T15:02:08.921Z</time>
      </trkpt>
      <trkpt lat="48.40896" lon="-3.71767">
        <ele>155.8</ele>
        <time>2021-11-21T15:02:10.196Z</time>
      </trkpt>
      <trkpt lat="48.40896" lon="-3.71752">
        <ele>155.6</ele>
        <time>2021-11-21T15:02:11.319Z</time>
      </trkpt>
      <trkpt lat="48.40896" lon="-3.7174">
        <ele>157.2</ele>
        <time>2021-11-21T15:02:12.184Z</time>
      </trkpt>
      <trkpt lat="48.40898" lon="-3.71726">
        <ele>158.9</ele>
        <time>2021-11-21T15:02:13.293Z</time>
      </trkpt>
      <trkpt lat="48.409" lon="-3.7171">
        <ele>160.9</ele>
        <time>2021-11-21T15:02:14.430Z</time>
      </trkpt>
      <trkpt lat="48.40904" lon="-3.71687">
        <ele>164</ele>
        <time>2021-11-21T15:02:16.251Z</time>
      </trkpt>
      <trkpt lat="48.40892" lon="-3.71694">
        <ele>164.1</ele>
        <time>2021-11-21T15:02:17.758Z</time>
      </trkpt>
      <trkpt lat="48.40882" lon="-3.717">
        <ele>164.9</ele>
        <time>2021-11-21T15:02:18.911Z</time>
      </trkpt>
      <trkpt lat="48.40883" lon="-3.71692">
        <ele>165.8</ele>
        <time>2021-11-21T15:02:19.562Z</time>
      </trkpt>
      <trkpt lat="48.40884" lon="-3.71686">
        <ele>166.4</ele>
        <time>2021-11-21T15:02:20.018Z</time>
      </trkpt>
      <trkpt lat="48.40887" lon="-3.71681">
        <ele>166.8</ele>
        <time>2021-11-21T15:02:20.499Z</time>
      </trkpt>
      <trkpt lat="48.40902" lon="-3.71671">
        <ele>166.9</ele>
        <time>2021-11-21T15:02:22.279Z</time>
      </trkpt>
      <trkpt lat="48.40914" lon="-3.71663">
        <ele>167.2</ele>
        <time>2021-11-21T15:02:23.769Z</time>
      </trkpt>
      <trkpt lat="48.40935" lon="-3.71646">
        <ele>168.4</ele>
        <time>2021-11-21T15:02:26.469Z</time>
      </trkpt>
      <trkpt lat="48.40952" lon="-3.71629">
        <ele>170.3</ele>
        <time>2021-11-21T15:02:28.661Z</time>
      </trkpt>
      <trkpt lat="48.40957" lon="-3.71623">
        <ele>170.9</ele>
        <time>2021-11-21T15:02:29.361Z</time>
      </trkpt>
      <trkpt lat="48.40963" lon="-3.71614">
        <ele>171.6</ele>
        <time>2021-11-21T15:02:30.327Z</time>
      </trkpt>
      <trkpt lat="48.40973" lon="-3.71598">
        <ele>172.3</ele>
        <time>2021-11-21T15:02:31.986Z</time>
      </trkpt>
      <trkpt lat="48.40978" lon="-3.71587">
        <ele>172.1</ele>
        <time>2021-11-21T15:02:33.011Z</time>
      </trkpt>
      <trkpt lat="48.40982" lon="-3.71574">
        <ele>172.2</ele>
        <time>2021-11-21T15:02:33.993Z</time>
      </trkpt>
      <trkpt lat="48.40983" lon="-3.71565">
        <ele>172.5</ele>
        <time>2021-11-21T15:02:34.698Z</time>
      </trkpt>
      <trkpt lat="48.40982" lon="-3.71557">
        <ele>172.8</ele>
        <time>2021-11-21T15:02:35.319Z</time>
      </trkpt>
      <trkpt lat="48.40978" lon="-3.71544">
        <ele>173.1</ele>
        <time>2021-11-21T15:02:36.300Z</time>
      </trkpt>
      <trkpt lat="48.40966" lon="-3.71523">
        <ele>174.3</ele>
        <time>2021-11-21T15:02:38.428Z</time>
      </trkpt>
      <trkpt lat="48.40964" lon="-3.71511">
        <ele>174.2</ele>
        <time>2021-11-21T15:02:39.313Z</time>
      </trkpt>
      <trkpt lat="48.40964" lon="-3.71497">
        <ele>173.8</ele>
        <time>2021-11-21T15:02:40.349Z</time>
      </trkpt>
      <trkpt lat="48.40968" lon="-3.71421">
        <ele>170.2</ele>
        <time>2021-11-21T15:02:46.026Z</time>
      </trkpt>
      <trkpt lat="48.40968" lon="-3.71397">
        <ele>169.3</ele>
        <time>2021-11-21T15:02:47.751Z</time>
      </trkpt>
      <trkpt lat="48.40968" lon="-3.71391">
        <ele>169.1</ele>
        <time>2021-11-21T15:02:48.217Z</time>
      </trkpt>
      <trkpt lat="48.40977" lon="-3.71367">
        <ele>168.3</ele>
        <time>2021-11-21T15:02:50.265Z</time>
      </trkpt>
      <trkpt lat="48.40987" lon="-3.71343">
        <ele>167.2</ele>
        <time>2021-11-21T15:02:52.387Z</time>
      </trkpt>
      <trkpt lat="48.40989" lon="-3.71336">
        <ele>167</ele>
        <time>2021-11-21T15:02:52.958Z</time>
      </trkpt>
      <trkpt lat="48.4099" lon="-3.71329">
        <ele>166.7</ele>
        <time>2021-11-21T15:02:53.443Z</time>
      </trkpt>
      <trkpt lat="48.4099" lon="-3.71321">
        <ele>166.4</ele>
        <time>2021-11-21T15:02:54.047Z</time>
      </trkpt>
      <trkpt lat="48.4099" lon="-3.71312">
        <ele>165.9</ele>
        <time>2021-11-21T15:02:54.737Z</time>
      </trkpt>
      <trkpt lat="48.4099" lon="-3.71284">
        <ele>164.3</ele>
        <time>2021-11-21T15:02:56.765Z</time>
      </trkpt>
      <trkpt lat="48.40985" lon="-3.71256">
        <ele>163</ele>
        <time>2021-11-21T15:02:58.932Z</time>
      </trkpt>
      <trkpt lat="48.40979" lon="-3.71214">
        <ele>163.1</ele>
        <time>2021-11-21T15:03:02.083Z</time>
      </trkpt>
      <trkpt lat="48.40978" lon="-3.71202">
        <ele>163.4</ele>
        <time>2021-11-21T15:03:03.038Z</time>
      </trkpt>
      <trkpt lat="48.40978" lon="-3.71186">
        <ele>163.5</ele>
        <time>2021-11-21T15:03:04.162Z</time>
      </trkpt>
      <trkpt lat="48.40977" lon="-3.71149">
        <ele>163.2</ele>
        <time>2021-11-21T15:03:06.889Z</time>
      </trkpt>
      <trkpt lat="48.40976" lon="-3.71099">
        <ele>159.5</ele>
        <time>2021-11-21T15:03:10.652Z</time>
      </trkpt>
      <trkpt lat="48.40976" lon="-3.70975">
        <ele>150.9</ele>
        <time>2021-11-21T15:03:19.821Z</time>
      </trkpt>
      <trkpt lat="48.40975" lon="-3.70962">
        <ele>150.5</ele>
        <time>2021-11-21T15:03:20.789Z</time>
      </trkpt>
      <trkpt lat="48.40955" lon="-3.70956">
        <ele>153.7</ele>
        <time>2021-11-21T15:03:22.992Z</time>
      </trkpt>
      <trkpt lat="48.40946" lon="-3.70948">
        <ele>154.7</ele>
        <time>2021-11-21T15:03:24.223Z</time>
      </trkpt>
      <trkpt lat="48.4094" lon="-3.70927">
        <ele>154.3</ele>
        <time>2021-11-21T15:03:25.912Z</time>
      </trkpt>
      <trkpt lat="48.40935" lon="-3.70902">
        <ele>153.9</ele>
        <time>2021-11-21T15:03:27.797Z</time>
      </trkpt>
      <trkpt lat="48.40924" lon="-3.7086">
        <ele>154.4</ele>
        <time>2021-11-21T15:03:31.137Z</time>
      </trkpt>
      <trkpt lat="48.4091" lon="-3.70794">
        <ele>154.7</ele>
        <time>2021-11-21T15:03:36.242Z</time>
      </trkpt>
      <trkpt lat="48.40904" lon="-3.70778">
        <ele>154.7</ele>
        <time>2021-11-21T15:03:37.624Z</time>
      </trkpt>
      <trkpt lat="48.40897" lon="-3.70765">
        <ele>155.2</ele>
        <time>2021-11-21T15:03:38.869Z</time>
      </trkpt>
      <trkpt lat="48.40944" lon="-3.70762">
        <ele>148.3</ele>
        <time>2021-11-21T15:03:44.147Z</time>
      </trkpt>
      <trkpt lat="48.40978" lon="-3.70765">
        <ele>143.2</ele>
        <time>2021-11-21T15:03:47.876Z</time>
      </trkpt>
      <trkpt lat="48.41024" lon="-3.70773">
        <ele>136.5</ele>
        <time>2021-11-21T15:03:53.092Z</time>
      </trkpt>
      <trkpt lat="48.41047" lon="-3.70782">
        <ele>133.2</ele>
        <time>2021-11-21T15:03:55.736Z</time>
      </trkpt>
      <trkpt lat="48.41061" lon="-3.70777">
        <ele>130.9</ele>
        <time>2021-11-21T15:03:57.307Z</time>
      </trkpt>
      <trkpt lat="48.4107" lon="-3.70766">
        <ele>128.4</ele>
        <time>2021-11-21T15:03:58.573Z</time>
      </trkpt>
      <trkpt lat="48.41076" lon="-3.70756">
        <ele>126.4</ele>
        <time>2021-11-21T15:03:59.597Z</time>
      </trkpt>
      <trkpt lat="48.41082" lon="-3.70747">
        <ele>124.6</ele>
        <time>2021-11-21T15:04:00.618Z</time>
      </trkpt>
      <trkpt lat="48.41076" lon="-3.70627">
        <ele>121</ele>
        <time>2021-11-21T15:04:09.534Z</time>
      </trkpt>
      <trkpt lat="48.41075" lon="-3.70604">
        <ele>119.3</ele>
        <time>2021-11-21T15:04:11.220Z</time>
      </trkpt>
      <trkpt lat="48.41075" lon="-3.70592">
        <ele>118.2</ele>
        <time>2021-11-21T15:04:12.093Z</time>
      </trkpt>
      <trkpt lat="48.41076" lon="-3.70586">
        <ele>117.8</ele>
        <time>2021-11-21T15:04:12.526Z</time>
      </trkpt>
      <trkpt lat="48.41079" lon="-3.70568">
        <ele>116.6</ele>
        <time>2021-11-21T15:04:13.957Z</time>
      </trkpt>
      <trkpt lat="48.41083" lon="-3.70556">
        <ele>115.9</ele>
        <time>2021-11-21T15:04:14.859Z</time>
      </trkpt>
      <trkpt lat="48.41087" lon="-3.70546">
        <ele>115.4</ele>
        <time>2021-11-21T15:04:15.747Z</time>
      </trkpt>
      <trkpt lat="48.41096" lon="-3.70527">
        <ele>114.9</ele>
        <time>2021-11-21T15:04:17.511Z</time>
      </trkpt>
      <trkpt lat="48.41111" lon="-3.70504">
        <ele>113.7</ele>
        <time>2021-11-21T15:04:19.872Z</time>
      </trkpt>
      <trkpt lat="48.41208" lon="-3.70364">
        <ele>111.5</ele>
        <time>2021-11-21T15:04:34.797Z</time>
      </trkpt>
      <trkpt lat="48.41225" lon="-3.70338">
        <ele>113</ele>
        <time>2021-11-21T15:04:37.499Z</time>
      </trkpt>
      <trkpt lat="48.41233" lon="-3.70329">
        <ele>112.9</ele>
        <time>2021-11-21T15:04:38.692Z</time>
      </trkpt>
      <trkpt lat="48.41241" lon="-3.70322">
        <ele>113</ele>
        <time>2021-11-21T15:04:39.730Z</time>
      </trkpt>
      <trkpt lat="48.4125" lon="-3.70317">
        <ele>113.3</ele>
        <time>2021-11-21T15:04:40.869Z</time>
      </trkpt>
      <trkpt lat="48.41256" lon="-3.70315">
        <ele>113.5</ele>
        <time>2021-11-21T15:04:41.465Z</time>
      </trkpt>
      <trkpt lat="48.4126" lon="-3.70314">
        <ele>113.7</ele>
        <time>2021-11-21T15:04:41.994Z</time>
      </trkpt>
      <trkpt lat="48.41267" lon="-3.70314">
        <ele>113.9</ele>
        <time>2021-11-21T15:04:42.720Z</time>
      </trkpt>
      <trkpt lat="48.41272" lon="-3.70314">
        <ele>113.9</ele>
        <time>2021-11-21T15:04:43.293Z</time>
      </trkpt>
      <trkpt lat="48.41278" lon="-3.70316">
        <ele>113.8</ele>
        <time>2021-11-21T15:04:43.980Z</time>
      </trkpt>
      <trkpt lat="48.41288" lon="-3.70322">
        <ele>113.8</ele>
        <time>2021-11-21T15:04:45.248Z</time>
      </trkpt>
      <trkpt lat="48.41279" lon="-3.70292">
        <ele>113.7</ele>
        <time>2021-11-21T15:04:47.756Z</time>
      </trkpt>
      <trkpt lat="48.41253" lon="-3.7022">
        <ele>114.1</ele>
        <time>2021-11-21T15:04:53.869Z</time>
      </trkpt>
      <trkpt lat="48.41233" lon="-3.70165">
        <ele>115.7</ele>
        <time>2021-11-21T15:04:58.514Z</time>
      </trkpt>
      <trkpt lat="48.41222" lon="-3.70147">
        <ele>116.2</ele>
        <time>2021-11-21T15:05:00.300Z</time>
      </trkpt>
      <trkpt lat="48.41208" lon="-3.7013">
        <ele>114.7</ele>
        <time>2021-11-21T15:05:02.269Z</time>
      </trkpt>
      <trkpt lat="48.41202" lon="-3.70122">
        <ele>115.2</ele>
        <time>2021-11-21T15:05:03.202Z</time>
      </trkpt>
      <trkpt lat="48.41197" lon="-3.70116">
        <ele>115.2</ele>
        <time>2021-11-21T15:05:03.877Z</time>
      </trkpt>
      <trkpt lat="48.41184" lon="-3.701">
        <ele>113</ele>
        <time>2021-11-21T15:05:05.751Z</time>
      </trkpt>
      <trkpt lat="48.41134" lon="-3.69928">
        <ele>114.4</ele>
        <time>2021-11-21T15:05:19.572Z</time>
      </trkpt>
      <trkpt lat="48.41108" lon="-3.69845">
        <ele>113.2</ele>
        <time>2021-11-21T15:05:26.382Z</time>
      </trkpt>
      <trkpt lat="48.41093" lon="-3.69802">
        <ele>114.5</ele>
        <time>2021-11-21T15:05:29.979Z</time>
      </trkpt>
      <trkpt lat="48.41079" lon="-3.6976">
        <ele>114</ele>
        <time>2021-11-21T15:05:33.416Z</time>
      </trkpt>
      <trkpt lat="48.41064" lon="-3.69712">
        <ele>114</ele>
        <time>2021-11-21T15:05:37.403Z</time>
      </trkpt>
      <trkpt lat="48.4105" lon="-3.69679">
        <ele>113.2</ele>
        <time>2021-11-21T15:05:40.224Z</time>
      </trkpt>
      <trkpt lat="48.41037" lon="-3.69649">
        <ele>113.8</ele>
        <time>2021-11-21T15:05:42.883Z</time>
      </trkpt>
      <trkpt lat="48.41028" lon="-3.69632">
        <ele>113.4</ele>
        <time>2021-11-21T15:05:44.521Z</time>
      </trkpt>
      <trkpt lat="48.41017" lon="-3.69613">
        <ele>114.2</ele>
        <time>2021-11-21T15:05:46.382Z</time>
      </trkpt>
      <trkpt lat="48.40994" lon="-3.69585">
        <ele>112.9</ele>
        <time>2021-11-21T15:05:49.719Z</time>
      </trkpt>
      <trkpt lat="48.40968" lon="-3.6956">
        <ele>112.9</ele>
        <time>2021-11-21T15:05:53.186Z</time>
      </trkpt>
      <trkpt lat="48.40924" lon="-3.69528">
        <ele>111.4</ele>
        <time>2021-11-21T15:05:58.653Z</time>
      </trkpt>
      <trkpt lat="48.40874" lon="-3.69489">
        <ele>111.5</ele>
        <time>2021-11-21T15:06:04.953Z</time>
      </trkpt>
      <trkpt lat="48.40831" lon="-3.69457">
        <ele>111.4</ele>
        <time>2021-11-21T15:06:10.271Z</time>
      </trkpt>
      <trkpt lat="48.40809" lon="-3.69439">
        <ele>111</ele>
        <time>2021-11-21T15:06:13.073Z</time>
      </trkpt>
      <trkpt lat="48.40798" lon="-3.69429">
        <ele>111.4</ele>
        <time>2021-11-21T15:06:14.467Z</time>
      </trkpt>
      <trkpt lat="48.40791" lon="-3.69421">
        <ele>111.7</ele>
        <time>2021-11-21T15:06:15.436Z</time>
      </trkpt>
      <trkpt lat="48.40766" lon="-3.69386">
        <ele>110.3</ele>
        <time>2021-11-21T15:06:19.255Z</time>
      </trkpt>
      <trkpt lat="48.4076" lon="-3.69372">
        <ele>110.1</ele>
        <time>2021-11-21T15:06:20.500Z</time>
      </trkpt>
      <trkpt lat="48.40753" lon="-3.69359">
        <ele>109.5</ele>
        <time>2021-11-21T15:06:21.722Z</time>
      </trkpt>
      <trkpt lat="48.40737" lon="-3.6931">
        <ele>108.6</ele>
        <time>2021-11-21T15:06:25.733Z</time>
      </trkpt>
      <trkpt lat="48.4073" lon="-3.6928">
        <ele>109.7</ele>
        <time>2021-11-21T15:06:28.065Z</time>
      </trkpt>
      <trkpt lat="48.40725" lon="-3.69252">
        <ele>110.3</ele>
        <time>2021-11-21T15:06:30.217Z</time>
      </trkpt>
      <trkpt lat="48.4071" lon="-3.69163">
        <ele>108.5</ele>
        <time>2021-11-21T15:06:37.034Z</time>
      </trkpt>
      <trkpt lat="48.40695" lon="-3.69076">
        <ele>107.7</ele>
        <time>2021-11-21T15:06:43.640Z</time>
      </trkpt>
      <trkpt lat="48.40688" lon="-3.69051">
        <ele>107.8</ele>
        <time>2021-11-21T15:06:45.667Z</time>
      </trkpt>
      <trkpt lat="48.4068" lon="-3.69029">
        <ele>106.3</ele>
        <time>2021-11-21T15:06:47.494Z</time>
      </trkpt>
      <trkpt lat="48.4067" lon="-3.69006">
        <ele>105.5</ele>
        <time>2021-11-21T15:06:49.611Z</time>
      </trkpt>
      <trkpt lat="48.40661" lon="-3.68989">
        <ele>105</ele>
        <time>2021-11-21T15:06:51.140Z</time>
      </trkpt>
      <trkpt lat="48.40651" lon="-3.68973">
        <ele>105</ele>
        <time>2021-11-21T15:06:52.821Z</time>
      </trkpt>
      <trkpt lat="48.40639" lon="-3.68958">
        <ele>104.6</ele>
        <time>2021-11-21T15:06:54.624Z</time>
      </trkpt>
      <trkpt lat="48.40638" lon="-3.68957">
        <ele>104.6</ele>
        <time>2021-11-21T15:06:54.751Z</time>
      </trkpt>
      <trkpt lat="48.40625" lon="-3.68942">
        <ele>106.1</ele>
        <time>2021-11-21T15:06:56.588Z</time>
      </trkpt>
      <trkpt lat="48.40611" lon="-3.68928">
        <ele>105.7</ele>
        <time>2021-11-21T15:06:58.469Z</time>
      </trkpt>
      <trkpt lat="48.40602" lon="-3.68922">
        <ele>104.8</ele>
        <time>2021-11-21T15:06:59.587Z</time>
      </trkpt>
      <trkpt lat="48.40597" lon="-3.68919">
        <ele>104.6</ele>
        <time>2021-11-21T15:07:00.159Z</time>
      </trkpt>
      <trkpt lat="48.40582" lon="-3.68909">
        <ele>105</ele>
        <time>2021-11-21T15:07:02.024Z</time>
      </trkpt>
      <trkpt lat="48.40566" lon="-3.68904">
        <ele>106</ele>
        <time>2021-11-21T15:07:03.829Z</time>
      </trkpt>
      <trkpt lat="48.40553" lon="-3.68899">
        <ele>106.9</ele>
        <time>2021-11-21T15:07:05.373Z</time>
      </trkpt>
      <trkpt lat="48.40552" lon="-3.689">
        <ele>106.9</ele>
        <time>2021-11-21T15:07:05.483Z</time>
      </trkpt>
      <trkpt lat="48.40553" lon="-3.68899">
        <ele>106.9</ele>
        <time>2021-11-21T15:07:05.593Z</time>
      </trkpt>
      <trkpt lat="48.4055" lon="-3.68922">
        <ele>107.1</ele>
        <time>2021-11-21T15:07:07.265Z</time>
      </trkpt>
      <trkpt lat="48.40549" lon="-3.68927">
        <ele>107.1</ele>
        <time>2021-11-21T15:07:07.701Z</time>
      </trkpt>
      <trkpt lat="48.40546" lon="-3.68935">
        <ele>108.5</ele>
        <time>2021-11-21T15:07:08.352Z</time>
      </trkpt>
      <trkpt lat="48.40544" lon="-3.6894">
        <ele>109.8</ele>
        <time>2021-11-21T15:07:08.807Z</time>
      </trkpt>
      <trkpt lat="48.40537" lon="-3.68946">
        <ele>111.8</ele>
        <time>2021-11-21T15:07:09.661Z</time>
      </trkpt>
      <trkpt lat="48.40525" lon="-3.68945">
        <ele>113.3</ele>
        <time>2021-11-21T15:07:10.987Z</time>
      </trkpt>
      <trkpt lat="48.40467" lon="-3.68953">
        <ele>120.9</ele>
        <time>2021-11-21T15:07:17.540Z</time>
      </trkpt>
      <trkpt lat="48.40465" lon="-3.68955">
        <ele>121.6</ele>
        <time>2021-11-21T15:07:17.852Z</time>
      </trkpt>
      <trkpt lat="48.40438" lon="-3.68975">
        <ele>126.1</ele>
        <time>2021-11-21T15:07:21.316Z</time>
      </trkpt>
      <trkpt lat="48.40424" lon="-3.68986">
        <ele>127.5</ele>
        <time>2021-11-21T15:07:23.128Z</time>
      </trkpt>
      <trkpt lat="48.40413" lon="-3.68998">
        <ele>128.8</ele>
        <time>2021-11-21T15:07:24.743Z</time>
      </trkpt>
      <trkpt lat="48.40408" lon="-3.69">
        <ele>130.5</ele>
        <time>2021-11-21T15:07:25.322Z</time>
      </trkpt>
      <trkpt lat="48.40396" lon="-3.68991">
        <ele>132.4</ele>
        <time>2021-11-21T15:07:26.867Z</time>
      </trkpt>
      <trkpt lat="48.40385" lon="-3.68977">
        <ele>133.4</ele>
        <time>2021-11-21T15:07:28.429Z</time>
      </trkpt>
      <trkpt lat="48.40374" lon="-3.68973">
        <ele>134.9</ele>
        <time>2021-11-21T15:07:29.697Z</time>
      </trkpt>
      <trkpt lat="48.40366" lon="-3.68972">
        <ele>136</ele>
        <time>2021-11-21T15:07:30.551Z</time>
      </trkpt>
      <trkpt lat="48.40359" lon="-3.68972">
        <ele>136.9</ele>
        <time>2021-11-21T15:07:31.358Z</time>
      </trkpt>
      <trkpt lat="48.40355" lon="-3.68973">
        <ele>137.4</ele>
        <time>2021-11-21T15:07:31.837Z</time>
      </trkpt>
      <trkpt lat="48.40353" lon="-3.68975">
        <ele>137.9</ele>
        <time>2021-11-21T15:07:32.110Z</time>
      </trkpt>
      <trkpt lat="48.40351" lon="-3.68978">
        <ele>138.5</ele>
        <time>2021-11-21T15:07:32.418Z</time>
      </trkpt>
      <trkpt lat="48.40352" lon="-3.68982">
        <ele>139</ele>
        <time>2021-11-21T15:07:32.736Z</time>
      </trkpt>
      <trkpt lat="48.40352" lon="-3.68987">
        <ele>139.6</ele>
        <time>2021-11-21T15:07:33.092Z</time>
      </trkpt>
      <trkpt lat="48.40353" lon="-3.68994">
        <ele>140.3</ele>
        <time>2021-11-21T15:07:33.605Z</time>
      </trkpt>
      <trkpt lat="48.40355" lon="-3.69001">
        <ele>141.1</ele>
        <time>2021-11-21T15:07:34.205Z</time>
      </trkpt>
      <trkpt lat="48.40356" lon="-3.69012">
        <ele>142.5</ele>
        <time>2021-11-21T15:07:35.063Z</time>
      </trkpt>
      <trkpt lat="48.40355" lon="-3.69021">
        <ele>144.2</ele>
        <time>2021-11-21T15:07:35.737Z</time>
      </trkpt>
      <trkpt lat="48.40354" lon="-3.69027">
        <ele>145.4</ele>
        <time>2021-11-21T15:07:36.244Z</time>
      </trkpt>
      <trkpt lat="48.40352" lon="-3.69032">
        <ele>146.5</ele>
        <time>2021-11-21T15:07:36.647Z</time>
      </trkpt>
      <trkpt lat="48.4035" lon="-3.69034">
        <ele>147.2</ele>
        <time>2021-11-21T15:07:36.946Z</time>
      </trkpt>
      <trkpt lat="48.40347" lon="-3.69037">
        <ele>148.2</ele>
        <time>2021-11-21T15:07:37.367Z</time>
      </trkpt>
      <trkpt lat="48.40341" lon="-3.6904">
        <ele>149.3</ele>
        <time>2021-11-21T15:07:38.022Z</time>
      </trkpt>
      <trkpt lat="48.40333" lon="-3.69042">
        <ele>150.1</ele>
        <time>2021-11-21T15:07:38.944Z</time>
      </trkpt>
      <trkpt lat="48.40326" lon="-3.69047">
        <ele>151.3</ele>
        <time>2021-11-21T15:07:39.807Z</time>
      </trkpt>
      <trkpt lat="48.40319" lon="-3.69054">
        <ele>152.8</ele>
        <time>2021-11-21T15:07:40.799Z</time>
      </trkpt>
      <trkpt lat="48.40311" lon="-3.69058">
        <ele>154.2</ele>
        <time>2021-11-21T15:07:41.710Z</time>
      </trkpt>
      <trkpt lat="48.40299" lon="-3.69061">
        <ele>155.9</ele>
        <time>2021-11-21T15:07:43.015Z</time>
      </trkpt>
      <trkpt lat="48.40292" lon="-3.6906">
        <ele>156.3</ele>
        <time>2021-11-21T15:07:43.873Z</time>
      </trkpt>
      <trkpt lat="48.40284" lon="-3.6906">
        <ele>156.9</ele>
        <time>2021-11-21T15:07:44.728Z</time>
      </trkpt>
      <trkpt lat="48.40277" lon="-3.69062">
        <ele>157.7</ele>
        <time>2021-11-21T15:07:45.567Z</time>
      </trkpt>
      <trkpt lat="48.40271" lon="-3.69068">
        <ele>158.7</ele>
        <time>2021-11-21T15:07:46.376Z</time>
      </trkpt>
      <trkpt lat="48.40262" lon="-3.69076">
        <ele>160</ele>
        <time>2021-11-21T15:07:47.549Z</time>
      </trkpt>
      <trkpt lat="48.40256" lon="-3.69085">
        <ele>161.1</ele>
        <time>2021-11-21T15:07:48.518Z</time>
      </trkpt>
      <trkpt lat="48.4025" lon="-3.69096">
        <ele>162</ele>
        <time>2021-11-21T15:07:49.513Z</time>
      </trkpt>
      <trkpt lat="48.40241" lon="-3.69111">
        <ele>162.3</ele>
        <time>2021-11-21T15:07:51.057Z</time>
      </trkpt>
      <trkpt lat="48.40241" lon="-3.69118">
        <ele>162.5</ele>
        <time>2021-11-21T15:07:51.529Z</time>
      </trkpt>
      <trkpt lat="48.40241" lon="-3.69118">
        <ele>162.5</ele>
        <time>2021-11-21T15:07:51.529Z</time>
      </trkpt>
      <trkpt lat="48.4024" lon="-3.69133">
        <ele>162.7</ele>
        <time>2021-11-21T15:07:52.626Z</time>
      </trkpt>
      <trkpt lat="48.40244" lon="-3.69163">
        <ele>163</ele>
        <time>2021-11-21T15:07:54.921Z</time>
      </trkpt>
      <trkpt lat="48.40244" lon="-3.692">
        <ele>164.3</ele>
        <time>2021-11-21T15:07:57.639Z</time>
      </trkpt>
      <trkpt lat="48.40242" lon="-3.69214">
        <ele>165.2</ele>
        <time>2021-11-21T15:07:58.701Z</time>
      </trkpt>
      <trkpt lat="48.40241" lon="-3.69214">
        <ele>165.2</ele>
        <time>2021-11-21T15:07:58.768Z</time>
      </trkpt>
      <trkpt lat="48.40235" lon="-3.69255">
        <ele>167.3</ele>
        <time>2021-11-21T15:08:01.874Z</time>
      </trkpt>
      <trkpt lat="48.40227" lon="-3.69301">
        <ele>170.5</ele>
        <time>2021-11-21T15:08:05.430Z</time>
      </trkpt>
      <trkpt lat="48.40211" lon="-3.69334">
        <ele>174.7</ele>
        <time>2021-11-21T15:08:08.421Z</time>
      </trkpt>
      <trkpt lat="48.40184" lon="-3.69375">
        <ele>180.5</ele>
        <time>2021-11-21T15:08:12.720Z</time>
      </trkpt>
      <trkpt lat="48.40168" lon="-3.69402">
        <ele>183.9</ele>
        <time>2021-11-21T15:08:15.392Z</time>
      </trkpt>
      <trkpt lat="48.40165" lon="-3.69411">
        <ele>184.5</ele>
        <time>2021-11-21T15:08:16.102Z</time>
      </trkpt>
      <trkpt lat="48.40157" lon="-3.69432">
        <ele>185.3</ele>
        <time>2021-11-21T15:08:17.975Z</time>
      </trkpt>
      <trkpt lat="48.4015" lon="-3.6945">
        <ele>185.5</ele>
        <time>2021-11-21T15:08:19.471Z</time>
      </trkpt>
      <trkpt lat="48.40145" lon="-3.69465">
        <ele>186.3</ele>
        <time>2021-11-21T15:08:20.745Z</time>
      </trkpt>
      <trkpt lat="48.40138" lon="-3.69478">
        <ele>187.4</ele>
        <time>2021-11-21T15:08:22.014Z</time>
      </trkpt>
      <trkpt lat="48.40131" lon="-3.69489">
        <ele>187.9</ele>
        <time>2021-11-21T15:08:23.192Z</time>
      </trkpt>
      <trkpt lat="48.40124" lon="-3.6949">
        <ele>187.7</ele>
        <time>2021-11-21T15:08:24.017Z</time>
      </trkpt>
      <trkpt lat="48.40111" lon="-3.69493">
        <ele>187.6</ele>
        <time>2021-11-21T15:08:25.474Z</time>
      </trkpt>
      <trkpt lat="48.4011" lon="-3.69499">
        <ele>188</ele>
        <time>2021-11-21T15:08:25.922Z</time>
      </trkpt>
      <trkpt lat="48.40101" lon="-3.69517">
        <ele>189.6</ele>
        <time>2021-11-21T15:08:27.656Z</time>
      </trkpt>
      <trkpt lat="48.40089" lon="-3.69543">
        <ele>190</ele>
        <time>2021-11-21T15:08:30.056Z</time>
      </trkpt>
      <trkpt lat="48.40064" lon="-3.69609">
        <ele>190.1</ele>
        <time>2021-11-21T15:08:35.617Z</time>
      </trkpt>
      <trkpt lat="48.40034" lon="-3.69717">
        <ele>188.1</ele>
        <time>2021-11-21T15:08:44.285Z</time>
      </trkpt>
      <trkpt lat="48.40024" lon="-3.69751">
        <ele>187.8</ele>
        <time>2021-11-21T15:08:47.015Z</time>
      </trkpt>
      <trkpt lat="48.4002" lon="-3.69768">
        <ele>187.2</ele>
        <time>2021-11-21T15:08:48.335Z</time>
      </trkpt>
      <trkpt lat="48.40016" lon="-3.69781">
        <ele>186.4</ele>
        <time>2021-11-21T15:08:49.397Z</time>
      </trkpt>
      <trkpt lat="48.40014" lon="-3.69785">
        <ele>186.1</ele>
        <time>2021-11-21T15:08:49.816Z</time>
      </trkpt>
      <trkpt lat="48.40012" lon="-3.69788">
        <ele>185.9</ele>
        <time>2021-11-21T15:08:50.040Z</time>
      </trkpt>
      <trkpt lat="48.4001" lon="-3.69789">
        <ele>185.5</ele>
        <time>2021-11-21T15:08:50.310Z</time>
      </trkpt>
      <trkpt lat="48.40002" lon="-3.6979">
        <ele>184.7</ele>
        <time>2021-11-21T15:08:51.213Z</time>
      </trkpt>
      <trkpt lat="48.39978" lon="-3.6979">
        <ele>182.8</ele>
        <time>2021-11-21T15:08:53.928Z</time>
      </trkpt>
      <trkpt lat="48.39948" lon="-3.69793">
        <ele>179.3</ele>
        <time>2021-11-21T15:08:57.319Z</time>
      </trkpt>
      <trkpt lat="48.39932" lon="-3.69792">
        <ele>177.2</ele>
        <time>2021-11-21T15:08:59.125Z</time>
      </trkpt>
      <trkpt lat="48.39931" lon="-3.69796">
        <ele>177</ele>
        <time>2021-11-21T15:08:59.441Z</time>
      </trkpt>
      <trkpt lat="48.39928" lon="-3.69802">
        <ele>176.6</ele>
        <time>2021-11-21T15:08:59.960Z</time>
      </trkpt>
      <trkpt lat="48.39911" lon="-3.69825">
        <ele>174.6</ele>
        <time>2021-11-21T15:09:02.571Z</time>
      </trkpt>
      <trkpt lat="48.3992" lon="-3.69847">
        <ele>175.4</ele>
        <time>2021-11-21T15:09:04.494Z</time>
      </trkpt>
      <trkpt lat="48.39994" lon="-3.70063">
        <ele>180.3</ele>
        <time>2021-11-21T15:09:22.442Z</time>
      </trkpt>
      <trkpt lat="48.40008" lon="-3.70112">
        <ele>182.5</ele>
        <time>2021-11-21T15:09:26.330Z</time>
      </trkpt>
      <trkpt lat="48.40017" lon="-3.70156">
        <ele>185</ele>
        <time>2021-11-21T15:09:29.758Z</time>
      </trkpt>
      <trkpt lat="48.40022" lon="-3.70191">
        <ele>186</ele>
        <time>2021-11-21T15:09:32.397Z</time>
      </trkpt>
      <trkpt lat="48.40026" lon="-3.70218">
        <ele>186.8</ele>
        <time>2021-11-21T15:09:34.438Z</time>
      </trkpt>
      <trkpt lat="48.40026" lon="-3.70239">
        <ele>187.5</ele>
        <time>2021-11-21T15:09:35.992Z</time>
      </trkpt>
      <trkpt lat="48.40026" lon="-3.70282">
        <ele>189.9</ele>
        <time>2021-11-21T15:09:39.140Z</time>
      </trkpt>
      <trkpt lat="48.40026" lon="-3.70328">
        <ele>191.7</ele>
        <time>2021-11-21T15:09:42.549Z</time>
      </trkpt>
      <trkpt lat="48.40029" lon="-3.7036">
        <ele>192.6</ele>
        <time>2021-11-21T15:09:44.918Z</time>
      </trkpt>
      <trkpt lat="48.4004" lon="-3.70448">
        <ele>189.6</ele>
        <time>2021-11-21T15:09:51.557Z</time>
      </trkpt>
      <trkpt lat="48.40045" lon="-3.70482">
        <ele>188.6</ele>
        <time>2021-11-21T15:09:54.112Z</time>
      </trkpt>
      <trkpt lat="48.40044" lon="-3.70482">
        <ele>188.5</ele>
        <time>2021-11-21T15:09:54.230Z</time>
      </trkpt>
      <trkpt lat="48.40045" lon="-3.70482">
        <ele>188.6</ele>
        <time>2021-11-21T15:09:54.349Z</time>
      </trkpt>
      <trkpt lat="48.40052" lon="-3.70514">
        <ele>187.7</ele>
        <time>2021-11-21T15:09:56.860Z</time>
      </trkpt>
      <trkpt lat="48.40057" lon="-3.70536">
        <ele>186.9</ele>
        <time>2021-11-21T15:09:58.615Z</time>
      </trkpt>
      <trkpt lat="48.40064" lon="-3.70573">
        <ele>186.9</ele>
        <time>2021-11-21T15:10:01.417Z</time>
      </trkpt>
      <trkpt lat="48.40066" lon="-3.70589">
        <ele>186.5</ele>
        <time>2021-11-21T15:10:02.639Z</time>
      </trkpt>
      <trkpt lat="48.40069" lon="-3.70612">
        <ele>186.5</ele>
        <time>2021-11-21T15:10:04.375Z</time>
      </trkpt>
      <trkpt lat="48.40071" lon="-3.70652">
        <ele>187</ele>
        <time>2021-11-21T15:10:07.325Z</time>
      </trkpt>
      <trkpt lat="48.40074" lon="-3.70734">
        <ele>189</ele>
        <time>2021-11-21T15:10:13.421Z</time>
      </trkpt>
      <trkpt lat="48.40076" lon="-3.70801">
        <ele>191.6</ele>
        <time>2021-11-21T15:10:18.393Z</time>
      </trkpt>
      <trkpt lat="48.40054" lon="-3.70881">
        <ele>194</ele>
        <time>2021-11-21T15:10:24.742Z</time>
      </trkpt>
      <trkpt lat="48.40048" lon="-3.70905">
        <ele>194.4</ele>
        <time>2021-11-21T15:10:26.688Z</time>
      </trkpt>
      <trkpt lat="48.40041" lon="-3.70927">
        <ele>195.1</ele>
        <time>2021-11-21T15:10:28.457Z</time>
      </trkpt>
      <trkpt lat="48.4003" lon="-3.70953">
        <ele>196.1</ele>
        <time>2021-11-21T15:10:30.725Z</time>
      </trkpt>
      <trkpt lat="48.40005" lon="-3.70996">
        <ele>196.9</ele>
        <time>2021-11-21T15:10:34.980Z</time>
      </trkpt>
      <trkpt lat="48.39948" lon="-3.71066">
        <ele>197.2</ele>
        <time>2021-11-21T15:10:43.179Z</time>
      </trkpt>
      <trkpt lat="48.39928" lon="-3.71096">
        <ele>198.5</ele>
        <time>2021-11-21T15:10:46.272Z</time>
      </trkpt>
      <trkpt lat="48.39918" lon="-3.71122">
        <ele>199.9</ele>
        <time>2021-11-21T15:10:48.486Z</time>
      </trkpt>
      <trkpt lat="48.39888" lon="-3.71203">
        <ele>201.3</ele>
        <time>2021-11-21T15:10:55.390Z</time>
      </trkpt>
      <trkpt lat="48.39876" lon="-3.71238">
        <ele>201</ele>
        <time>2021-11-21T15:10:58.265Z</time>
      </trkpt>
      <trkpt lat="48.3987" lon="-3.71267">
        <ele>201.2</ele>
        <time>2021-11-21T15:11:00.512Z</time>
      </trkpt>
      <trkpt lat="48.39866" lon="-3.71312">
        <ele>201.6</ele>
        <time>2021-11-21T15:11:03.873Z</time>
      </trkpt>
      <trkpt lat="48.39865" lon="-3.71328">
        <ele>201.8</ele>
        <time>2021-11-21T15:11:05.091Z</time>
      </trkpt>
      <trkpt lat="48.39861" lon="-3.71384">
        <ele>201</ele>
        <time>2021-11-21T15:11:09.211Z</time>
      </trkpt>
      <trkpt lat="48.39858" lon="-3.7142">
        <ele>200.3</ele>
        <time>2021-11-21T15:11:11.906Z</time>
      </trkpt>
      <trkpt lat="48.39853" lon="-3.71442">
        <ele>198.7</ele>
        <time>2021-11-21T15:11:13.608Z</time>
      </trkpt>
      <trkpt lat="48.39863" lon="-3.71466">
        <ele>199.3</ele>
        <time>2021-11-21T15:11:15.684Z</time>
      </trkpt>
      <trkpt lat="48.39871" lon="-3.71487">
        <ele>199.7</ele>
        <time>2021-11-21T15:11:17.540Z</time>
      </trkpt>
      <trkpt lat="48.39879" lon="-3.71507">
        <ele>199.3</ele>
        <time>2021-11-21T15:11:19.175Z</time>
      </trkpt>
      <trkpt lat="48.39885" lon="-3.71525">
        <ele>199.6</ele>
        <time>2021-11-21T15:11:20.727Z</time>
      </trkpt>
      <trkpt lat="48.39889" lon="-3.71541">
        <ele>199.7</ele>
        <time>2021-11-21T15:11:21.984Z</time>
      </trkpt>
      <trkpt lat="48.39891" lon="-3.71551">
        <ele>199.5</ele>
        <time>2021-11-21T15:11:22.756Z</time>
      </trkpt>
      <trkpt lat="48.39892" lon="-3.7156">
        <ele>199.6</ele>
        <time>2021-11-21T15:11:23.410Z</time>
      </trkpt>
      <trkpt lat="48.3989" lon="-3.71568">
        <ele>200.3</ele>
        <time>2021-11-21T15:11:24.064Z</time>
      </trkpt>
      <trkpt lat="48.39888" lon="-3.71577">
        <ele>201.2</ele>
        <time>2021-11-21T15:11:24.789Z</time>
      </trkpt>
      <trkpt lat="48.39883" lon="-3.71595">
        <ele>203.2</ele>
        <time>2021-11-21T15:11:26.244Z</time>
      </trkpt>
      <trkpt lat="48.3987" lon="-3.7163">
        <ele>205.7</ele>
        <time>2021-11-21T15:11:29.243Z</time>
      </trkpt>
      <trkpt lat="48.3984" lon="-3.71674">
        <ele>207</ele>
        <time>2021-11-21T15:11:33.876Z</time>
      </trkpt>
      <trkpt lat="48.39829" lon="-3.71695">
        <ele>207</ele>
        <time>2021-11-21T15:11:35.824Z</time>
      </trkpt>
      <trkpt lat="48.39825" lon="-3.71716">
        <ele>206.8</ele>
        <time>2021-11-21T15:11:37.490Z</time>
      </trkpt>
      <trkpt lat="48.39823" lon="-3.71726">
        <ele>206.5</ele>
        <time>2021-11-21T15:11:38.206Z</time>
      </trkpt>
      <trkpt lat="48.39822" lon="-3.71747">
        <ele>205.8</ele>
        <time>2021-11-21T15:11:39.793Z</time>
      </trkpt>
      <trkpt lat="48.39811" lon="-3.71736">
        <ele>205.6</ele>
        <time>2021-11-21T15:11:41.235Z</time>
      </trkpt>
      <trkpt lat="48.39804" lon="-3.71731">
        <ele>205.5</ele>
        <time>2021-11-21T15:11:42.087Z</time>
      </trkpt>
      <trkpt lat="48.39798" lon="-3.71727">
        <ele>205.6</ele>
        <time>2021-11-21T15:11:42.814Z</time>
      </trkpt>
      <trkpt lat="48.39771" lon="-3.71716">
        <ele>205.3</ele>
        <time>2021-11-21T15:11:45.991Z</time>
      </trkpt>
      <trkpt lat="48.39691" lon="-3.71688">
        <ele>205.7</ele>
        <time>2021-11-21T15:11:55.085Z</time>
      </trkpt>
      <trkpt lat="48.39544" lon="-3.71638">
        <ele>204.4</ele>
        <time>2021-11-21T15:12:11.791Z</time>
      </trkpt>
      <trkpt lat="48.39534" lon="-3.71634">
        <ele>204.2</ele>
        <time>2021-11-21T15:12:13.020Z</time>
      </trkpt>
      <trkpt lat="48.39475" lon="-3.71612">
        <ele>202.6</ele>
        <time>2021-11-21T15:12:19.695Z</time>
      </trkpt>
      <trkpt lat="48.3944" lon="-3.716">
        <ele>199.9</ele>
        <time>2021-11-21T15:12:23.776Z</time>
      </trkpt>
      <trkpt lat="48.39409" lon="-3.71588">
        <ele>197.3</ele>
        <time>2021-11-21T15:12:27.259Z</time>
      </trkpt>
      <trkpt lat="48.39375" lon="-3.71572">
        <ele>193.4</ele>
        <time>2021-11-21T15:12:31.229Z</time>
      </trkpt>
      <trkpt lat="48.3934" lon="-3.71554">
        <ele>187.9</ele>
        <time>2021-11-21T15:12:35.331Z</time>
      </trkpt>
      <trkpt lat="48.3928" lon="-3.71521">
        <ele>183.9</ele>
        <time>2021-11-21T15:12:42.508Z</time>
      </trkpt>
      <trkpt lat="48.39242" lon="-3.71501">
        <ele>181.9</ele>
        <time>2021-11-21T15:12:47.027Z</time>
      </trkpt>
      <trkpt lat="48.39219" lon="-3.71488">
        <ele>180.7</ele>
        <time>2021-11-21T15:12:49.793Z</time>
      </trkpt>
      <trkpt lat="48.39147" lon="-3.71446">
        <ele>180.5</ele>
        <time>2021-11-21T15:12:58.383Z</time>
      </trkpt>
      <trkpt lat="48.39101" lon="-3.71422">
        <ele>182</ele>
        <time>2021-11-21T15:13:03.826Z</time>
      </trkpt>
      <trkpt lat="48.39087" lon="-3.71415">
        <ele>182.2</ele>
        <time>2021-11-21T15:13:05.489Z</time>
      </trkpt>
      <trkpt lat="48.39072" lon="-3.71409">
        <ele>182.5</ele>
        <time>2021-11-21T15:13:07.112Z</time>
      </trkpt>
      <trkpt lat="48.3906" lon="-3.71405">
        <ele>183</ele>
        <time>2021-11-21T15:13:08.559Z</time>
      </trkpt>
      <trkpt lat="48.39042" lon="-3.71403">
        <ele>182.5</ele>
        <time>2021-11-21T15:13:10.498Z</time>
      </trkpt>
      <trkpt lat="48.38905" lon="-3.71406">
        <ele>182.4</ele>
        <time>2021-11-21T15:13:25.770Z</time>
      </trkpt>
      <trkpt lat="48.38896" lon="-3.71406">
        <ele>182.5</ele>
        <time>2021-11-21T15:13:26.812Z</time>
      </trkpt>
      <trkpt lat="48.38845" lon="-3.71406">
        <ele>184.4</ele>
        <time>2021-11-21T15:13:32.437Z</time>
      </trkpt>
      <trkpt lat="48.38778" lon="-3.71405">
        <ele>187.5</ele>
        <time>2021-11-21T15:13:39.888Z</time>
      </trkpt>
      <trkpt lat="48.38716" lon="-3.71404">
        <ele>185.6</ele>
        <time>2021-11-21T15:13:46.852Z</time>
      </trkpt>
      <trkpt lat="48.38685" lon="-3.71402">
        <ele>184</ele>
        <time>2021-11-21T15:13:50.268Z</time>
      </trkpt>
      <trkpt lat="48.38669" lon="-3.71399">
        <ele>184.1</ele>
        <time>2021-11-21T15:13:52.033Z</time>
      </trkpt>
      <trkpt lat="48.38661" lon="-3.71396">
        <ele>184.1</ele>
        <time>2021-11-21T15:13:52.911Z</time>
      </trkpt>
      <trkpt lat="48.38654" lon="-3.71393">
        <ele>184.2</ele>
        <time>2021-11-21T15:13:53.747Z</time>
      </trkpt>
      <trkpt lat="48.38637" lon="-3.71383">
        <ele>184.8</ele>
        <time>2021-11-21T15:13:55.786Z</time>
      </trkpt>
      <trkpt lat="48.38615" lon="-3.71362">
        <ele>184.3</ele>
        <time>2021-11-21T15:13:58.751Z</time>
      </trkpt>
      <trkpt lat="48.38583" lon="-3.71331">
        <ele>184.3</ele>
        <time>2021-11-21T15:14:02.936Z</time>
      </trkpt>
      <trkpt lat="48.38564" lon="-3.71312">
        <ele>183.7</ele>
        <time>2021-11-21T15:14:05.436Z</time>
      </trkpt>
      <trkpt lat="48.38527" lon="-3.71275">
        <ele>182</ele>
        <time>2021-11-21T15:14:10.436Z</time>
      </trkpt>
      <trkpt lat="48.38503" lon="-3.7125">
        <ele>181</ele>
        <time>2021-11-21T15:14:13.694Z</time>
      </trkpt>
      <trkpt lat="48.38422" lon="-3.71166">
        <ele>177.4</ele>
        <time>2021-11-21T15:14:24.568Z</time>
      </trkpt>
      <trkpt lat="48.38359" lon="-3.71101">
        <ele>175.3</ele>
        <time>2021-11-21T15:14:33.080Z</time>
      </trkpt>
      <trkpt lat="48.38333" lon="-3.71076">
        <ele>175</ele>
        <time>2021-11-21T15:14:36.514Z</time>
      </trkpt>
      <trkpt lat="48.3832" lon="-3.71064">
        <ele>174.8</ele>
        <time>2021-11-21T15:14:38.201Z</time>
      </trkpt>
      <trkpt lat="48.38307" lon="-3.71056">
        <ele>174.8</ele>
        <time>2021-11-21T15:14:39.728Z</time>
      </trkpt>
      <trkpt lat="48.38298" lon="-3.71053">
        <ele>174.9</ele>
        <time>2021-11-21T15:14:40.744Z</time>
      </trkpt>
      <trkpt lat="48.3827" lon="-3.71055">
        <ele>174.9</ele>
        <time>2021-11-21T15:14:43.967Z</time>
      </trkpt>
      <trkpt lat="48.38229" lon="-3.71057">
        <ele>175.5</ele>
        <time>2021-11-21T15:14:48.423Z</time>
      </trkpt>
      <trkpt lat="48.38149" lon="-3.71059">
        <ele>175.7</ele>
        <time>2021-11-21T15:14:57.425Z</time>
      </trkpt>
      <trkpt lat="48.3811" lon="-3.71064">
        <ele>174.7</ele>
        <time>2021-11-21T15:15:01.705Z</time>
      </trkpt>
      <trkpt lat="48.3804" lon="-3.71069">
        <ele>175.3</ele>
        <time>2021-11-21T15:15:09.483Z</time>
      </trkpt>
      <trkpt lat="48.38004" lon="-3.71071">
        <ele>177.3</ele>
        <time>2021-11-21T15:15:13.573Z</time>
      </trkpt>
      <trkpt lat="48.37981" lon="-3.71071">
        <ele>178.7</ele>
        <time>2021-11-21T15:15:16.073Z</time>
      </trkpt>
      <trkpt lat="48.37938" lon="-3.71074">
        <ele>180.1</ele>
        <time>2021-11-21T15:15:20.881Z</time>
      </trkpt>
      <trkpt lat="48.37921" lon="-3.7107">
        <ele>180.1</ele>
        <time>2021-11-21T15:15:22.745Z</time>
      </trkpt>
      <trkpt lat="48.37908" lon="-3.71066">
        <ele>180</ele>
        <time>2021-11-21T15:15:24.246Z</time>
      </trkpt>
      <trkpt lat="48.37899" lon="-3.71062">
        <ele>180.4</ele>
        <time>2021-11-21T15:15:25.275Z</time>
      </trkpt>
      <trkpt lat="48.37893" lon="-3.71058">
        <ele>181</ele>
        <time>2021-11-21T15:15:26.090Z</time>
      </trkpt>
      <trkpt lat="48.37883" lon="-3.71051">
        <ele>181.6</ele>
        <time>2021-11-21T15:15:27.273Z</time>
      </trkpt>
      <trkpt lat="48.3788" lon="-3.71047">
        <ele>181.6</ele>
        <time>2021-11-21T15:15:27.754Z</time>
      </trkpt>
      <trkpt lat="48.37876" lon="-3.71043">
        <ele>181.5</ele>
        <time>2021-11-21T15:15:28.245Z</time>
      </trkpt>
      <trkpt lat="48.37843" lon="-3.70991">
        <ele>181.1</ele>
        <time>2021-11-21T15:15:33.578Z</time>
      </trkpt>
      <trkpt lat="48.37792" lon="-3.70911">
        <ele>174.3</ele>
        <time>2021-11-21T15:15:41.793Z</time>
      </trkpt>
      <trkpt lat="48.37698" lon="-3.70763">
        <ele>157.6</ele>
        <time>2021-11-21T15:15:56.918Z</time>
      </trkpt>
      <trkpt lat="48.37679" lon="-3.70734">
        <ele>155.5</ele>
        <time>2021-11-21T15:16:00.009Z</time>
      </trkpt>
      <trkpt lat="48.37665" lon="-3.70711">
        <ele>154.7</ele>
        <time>2021-11-21T15:16:02.330Z</time>
      </trkpt>
      <trkpt lat="48.37583" lon="-3.7058">
        <ele>157.3</ele>
        <time>2021-11-21T15:16:15.668Z</time>
      </trkpt>
      <trkpt lat="48.37547" lon="-3.70534">
        <ele>161.1</ele>
        <time>2021-11-21T15:16:20.952Z</time>
      </trkpt>
      <trkpt lat="48.37527" lon="-3.7051">
        <ele>163.3</ele>
        <time>2021-11-21T15:16:23.845Z</time>
      </trkpt>
      <trkpt lat="48.37509" lon="-3.70492">
        <ele>165.8</ele>
        <time>2021-11-21T15:16:26.211Z</time>
      </trkpt>
      <trkpt lat="48.37477" lon="-3.70457">
        <ele>167.2</ele>
        <time>2021-11-21T15:16:30.628Z</time>
      </trkpt>
      <trkpt lat="48.3744" lon="-3.70426">
        <ele>164.6</ele>
        <time>2021-11-21T15:16:35.359Z</time>
      </trkpt>
      <trkpt lat="48.37417" lon="-3.70407">
        <ele>162.2</ele>
        <time>2021-11-21T15:16:38.208Z</time>
      </trkpt>
      <trkpt lat="48.37405" lon="-3.70394">
        <ele>160.6</ele>
        <time>2021-11-21T15:16:39.909Z</time>
      </trkpt>
      <trkpt lat="48.37398" lon="-3.7038">
        <ele>159.2</ele>
        <time>2021-11-21T15:16:41.200Z</time>
      </trkpt>
      <trkpt lat="48.37389" lon="-3.70377">
        <ele>158.7</ele>
        <time>2021-11-21T15:16:42.254Z</time>
      </trkpt>
      <trkpt lat="48.37377" lon="-3.70368">
        <ele>157.8</ele>
        <time>2021-11-21T15:16:43.734Z</time>
      </trkpt>
      <trkpt lat="48.37353" lon="-3.70347">
        <ele>156.6</ele>
        <time>2021-11-21T15:16:46.854Z</time>
      </trkpt>
      <trkpt lat="48.37347" lon="-3.70342">
        <ele>156.3</ele>
        <time>2021-11-21T15:16:47.612Z</time>
      </trkpt>
      <trkpt lat="48.37353" lon="-3.70419">
        <ele>159.9</ele>
        <time>2021-11-21T15:16:53.338Z</time>
      </trkpt>
      <trkpt lat="48.37353" lon="-3.70463">
        <ele>161.6</ele>
        <time>2021-11-21T15:16:56.580Z</time>
      </trkpt>
      <trkpt lat="48.37352" lon="-3.70482">
        <ele>162.2</ele>
        <time>2021-11-21T15:16:58.013Z</time>
      </trkpt>
      <trkpt lat="48.37348" lon="-3.70497">
        <ele>162.9</ele>
        <time>2021-11-21T15:16:59.198Z</time>
      </trkpt>
      <trkpt lat="48.37342" lon="-3.70515">
        <ele>164</ele>
        <time>2021-11-21T15:17:00.699Z</time>
      </trkpt>
      <trkpt lat="48.37335" lon="-3.70528">
        <ele>164.7</ele>
        <time>2021-11-21T15:17:01.916Z</time>
      </trkpt>
      <trkpt lat="48.37322" lon="-3.70546">
        <ele>165.6</ele>
        <time>2021-11-21T15:17:03.905Z</time>
      </trkpt>
      <trkpt lat="48.37306" lon="-3.70582">
        <ele>169.3</ele>
        <time>2021-11-21T15:17:07.065Z</time>
      </trkpt>
      <trkpt lat="48.37294" lon="-3.70629">
        <ele>171.4</ele>
        <time>2021-11-21T15:17:10.784Z</time>
      </trkpt>
      <trkpt lat="48.37282" lon="-3.70673">
        <ele>171.5</ele>
        <time>2021-11-21T15:17:14.300Z</time>
      </trkpt>
      <trkpt lat="48.37275" lon="-3.70705">
        <ele>170.5</ele>
        <time>2021-11-21T15:17:16.804Z</time>
      </trkpt>
      <trkpt lat="48.37267" lon="-3.70748">
        <ele>169</ele>
        <time>2021-11-21T15:17:20.134Z</time>
      </trkpt>
      <trkpt lat="48.37256" lon="-3.70793">
        <ele>167.4</ele>
        <time>2021-11-21T15:17:23.627Z</time>
      </trkpt>
      <trkpt lat="48.37253" lon="-3.70812">
        <ele>166.5</ele>
        <time>2021-11-21T15:17:25.087Z</time>
      </trkpt>
      <trkpt lat="48.37251" lon="-3.70819">
        <ele>166.2</ele>
        <time>2021-11-21T15:17:25.648Z</time>
      </trkpt>
      <trkpt lat="48.37252" lon="-3.70838">
        <ele>164.9</ele>
        <time>2021-11-21T15:17:27.102Z</time>
      </trkpt>
      <trkpt lat="48.37252" lon="-3.70858">
        <ele>163.3</ele>
        <time>2021-11-21T15:17:28.574Z</time>
      </trkpt>
      <trkpt lat="48.37257" lon="-3.70878">
        <ele>161.3</ele>
        <time>2021-11-21T15:17:30.160Z</time>
      </trkpt>
      <trkpt lat="48.37289" lon="-3.70912">
        <ele>156.4</ele>
        <time>2021-11-21T15:17:34.596Z</time>
      </trkpt>
      <trkpt lat="48.37308" lon="-3.70933">
        <ele>152.5</ele>
        <time>2021-11-21T15:17:37.271Z</time>
      </trkpt>
      <trkpt lat="48.37312" lon="-3.70968">
        <ele>148.1</ele>
        <time>2021-11-21T15:17:39.866Z</time>
      </trkpt>
      <trkpt lat="48.37311" lon="-3.70997">
        <ele>146</ele>
        <time>2021-11-21T15:17:42.029Z</time>
      </trkpt>
      <trkpt lat="48.37309" lon="-3.7101">
        <ele>145.3</ele>
        <time>2021-11-21T15:17:42.999Z</time>
      </trkpt>
      <trkpt lat="48.37305" lon="-3.71052">
        <ele>142.8</ele>
        <time>2021-11-21T15:17:46.145Z</time>
      </trkpt>
      <trkpt lat="48.37294" lon="-3.71151">
        <ele>137.8</ele>
        <time>2021-11-21T15:17:53.557Z</time>
      </trkpt>
      <trkpt lat="48.37271" lon="-3.71209">
        <ele>136.1</ele>
        <time>2021-11-21T15:17:58.576Z</time>
      </trkpt>
      <trkpt lat="48.37246" lon="-3.71258">
        <ele>133.6</ele>
        <time>2021-11-21T15:18:03.095Z</time>
      </trkpt>
      <trkpt lat="48.37223" lon="-3.71297">
        <ele>131.2</ele>
        <time>2021-11-21T15:18:06.957Z</time>
      </trkpt>
      <trkpt lat="48.37213" lon="-3.71312">
        <ele>130.9</ele>
        <time>2021-11-21T15:18:08.521Z</time>
      </trkpt>
      <trkpt lat="48.37193" lon="-3.71345">
        <ele>127.8</ele>
        <time>2021-11-21T15:18:11.875Z</time>
      </trkpt>
      <trkpt lat="48.37168" lon="-3.71386">
        <ele>125.5</ele>
        <time>2021-11-21T15:18:15.970Z</time>
      </trkpt>
      <trkpt lat="48.37153" lon="-3.71412">
        <ele>123</ele>
        <time>2021-11-21T15:18:18.537Z</time>
      </trkpt>
      <trkpt lat="48.37138" lon="-3.71439">
        <ele>120.2</ele>
        <time>2021-11-21T15:18:21.156Z</time>
      </trkpt>
      <trkpt lat="48.37124" lon="-3.71459">
        <ele>117.2</ele>
        <time>2021-11-21T15:18:23.297Z</time>
      </trkpt>
      <trkpt lat="48.37116" lon="-3.7147">
        <ele>115.5</ele>
        <time>2021-11-21T15:18:24.488Z</time>
      </trkpt>
      <trkpt lat="48.37105" lon="-3.71476">
        <ele>113.6</ele>
        <time>2021-11-21T15:18:25.765Z</time>
      </trkpt>
      <trkpt lat="48.37085" lon="-3.71482">
        <ele>110.5</ele>
        <time>2021-11-21T15:18:28.096Z</time>
      </trkpt>
      <trkpt lat="48.3708" lon="-3.71474">
        <ele>110.3</ele>
        <time>2021-11-21T15:18:28.891Z</time>
      </trkpt>
      <trkpt lat="48.37071" lon="-3.71512">
        <ele>106.2</ele>
        <time>2021-11-21T15:18:31.911Z</time>
      </trkpt>
      <trkpt lat="48.37068" lon="-3.71523">
        <ele>105.1</ele>
        <time>2021-11-21T15:18:32.756Z</time>
      </trkpt>
      <trkpt lat="48.37059" lon="-3.71581">
        <ele>101.3</ele>
        <time>2021-11-21T15:18:37.199Z</time>
      </trkpt>
      <trkpt lat="48.37052" lon="-3.71611">
        <ele>102.3</ele>
        <time>2021-11-21T15:18:39.532Z</time>
      </trkpt>
      <trkpt lat="48.37034" lon="-3.71646">
        <ele>103.4</ele>
        <time>2021-11-21T15:18:42.793Z</time>
      </trkpt>
      <trkpt lat="48.36982" lon="-3.71752">
        <ele>110.3</ele>
        <time>2021-11-21T15:18:52.514Z</time>
      </trkpt>
      <trkpt lat="48.36969" lon="-3.71786">
        <ele>114</ele>
        <time>2021-11-21T15:18:55.494Z</time>
      </trkpt>
      <trkpt lat="48.36962" lon="-3.71842">
        <ele>118.5</ele>
        <time>2021-11-21T15:18:59.772Z</time>
      </trkpt>
      <trkpt lat="48.36936" lon="-3.71906">
        <ele>126.2</ele>
        <time>2021-11-21T15:19:05.247Z</time>
      </trkpt>
      <trkpt lat="48.36912" lon="-3.71948">
        <ele>133</ele>
        <time>2021-11-21T15:19:09.438Z</time>
      </trkpt>
      <trkpt lat="48.36882" lon="-3.71983">
        <ele>139.6</ele>
        <time>2021-11-21T15:19:13.664Z</time>
      </trkpt>
      <trkpt lat="48.36755" lon="-3.72041">
        <ele>141</ele>
        <time>2021-11-21T15:19:28.439Z</time>
      </trkpt>
      <trkpt lat="48.36803" lon="-3.72137">
        <ele>152.2</ele>
        <time>2021-11-21T15:19:37.347Z</time>
      </trkpt>
      <trkpt lat="48.36793" lon="-3.72134">
        <ele>150.8</ele>
        <time>2021-11-21T15:19:38.421Z</time>
      </trkpt>
      <trkpt lat="48.36779" lon="-3.72128">
        <ele>148.9</ele>
        <time>2021-11-21T15:19:40.057Z</time>
      </trkpt>
      <trkpt lat="48.36766" lon="-3.72121">
        <ele>147.5</ele>
        <time>2021-11-21T15:19:41.557Z</time>
      </trkpt>
      <trkpt lat="48.36743" lon="-3.72114">
        <ele>144.6</ele>
        <time>2021-11-21T15:19:44.180Z</time>
      </trkpt>
      <trkpt lat="48.36728" lon="-3.72105">
        <ele>143</ele>
        <time>2021-11-21T15:19:46.015Z</time>
      </trkpt>
      <trkpt lat="48.36714" lon="-3.72099">
        <ele>141.7</ele>
        <time>2021-11-21T15:19:47.672Z</time>
      </trkpt>
      <trkpt lat="48.36705" lon="-3.72101">
        <ele>140.4</ele>
        <time>2021-11-21T15:19:48.624Z</time>
      </trkpt>
      <trkpt lat="48.36703" lon="-3.72111">
        <ele>139.6</ele>
        <time>2021-11-21T15:19:49.355Z</time>
      </trkpt>
      <trkpt lat="48.36706" lon="-3.72123">
        <ele>139.4</ele>
        <time>2021-11-21T15:19:50.327Z</time>
      </trkpt>
      <trkpt lat="48.36712" lon="-3.72133">
        <ele>139.6</ele>
        <time>2021-11-21T15:19:51.325Z</time>
      </trkpt>
      <trkpt lat="48.3672" lon="-3.72143">
        <ele>140.3</ele>
        <time>2021-11-21T15:19:52.431Z</time>
      </trkpt>
      <trkpt lat="48.36725" lon="-3.72154">
        <ele>140.4</ele>
        <time>2021-11-21T15:19:53.501Z</time>
      </trkpt>
      <trkpt lat="48.36728" lon="-3.7216">
        <ele>140.5</ele>
        <time>2021-11-21T15:19:54.081Z</time>
      </trkpt>
      <trkpt lat="48.36728" lon="-3.72172">
        <ele>140.5</ele>
        <time>2021-11-21T15:19:54.983Z</time>
      </trkpt>
      <trkpt lat="48.36725" lon="-3.72177">
        <ele>141.2</ele>
        <time>2021-11-21T15:19:55.425Z</time>
      </trkpt>
      <trkpt lat="48.36724" lon="-3.72186">
        <ele>142.9</ele>
        <time>2021-11-21T15:19:56.105Z</time>
      </trkpt>
      <trkpt lat="48.3672" lon="-3.72198">
        <ele>144.8</ele>
        <time>2021-11-21T15:19:57.096Z</time>
      </trkpt>
      <trkpt lat="48.36709" lon="-3.72216">
        <ele>147.2</ele>
        <time>2021-11-21T15:19:58.855Z</time>
      </trkpt>
      <trkpt lat="48.36677" lon="-3.72228">
        <ele>149.8</ele>
        <time>2021-11-21T15:20:02.615Z</time>
      </trkpt>
      <trkpt lat="48.36641" lon="-3.72237">
        <ele>152.2</ele>
        <time>2021-11-21T15:20:06.668Z</time>
      </trkpt>
      <trkpt lat="48.36587" lon="-3.72241">
        <ele>152</ele>
        <time>2021-11-21T15:20:12.612Z</time>
      </trkpt>
      <trkpt lat="48.3651" lon="-3.723">
        <ele>156.8</ele>
        <time>2021-11-21T15:20:22.264Z</time>
      </trkpt>
      <trkpt lat="48.36474" lon="-3.72349">
        <ele>156.4</ele>
        <time>2021-11-21T15:20:27.730Z</time>
      </trkpt>
      <trkpt lat="48.36442" lon="-3.72412">
        <ele>157.6</ele>
        <time>2021-11-21T15:20:33.605Z</time>
      </trkpt>
      <trkpt lat="48.36412" lon="-3.72495">
        <ele>159.1</ele>
        <time>2021-11-21T15:20:40.553Z</time>
      </trkpt>
      <trkpt lat="48.36373" lon="-3.72677">
        <ele>171.2</ele>
        <time>2021-11-21T15:20:54.675Z</time>
      </trkpt>
      <trkpt lat="48.36385" lon="-3.72725">
        <ele>172.1</ele>
        <time>2021-11-21T15:20:58.448Z</time>
      </trkpt>
      <trkpt lat="48.36387" lon="-3.72728">
        <ele>172</ele>
        <time>2021-11-21T15:20:58.827Z</time>
      </trkpt>
      <trkpt lat="48.36396" lon="-3.72731">
        <ele>172</ele>
        <time>2021-11-21T15:20:59.789Z</time>
      </trkpt>
      <trkpt lat="48.36401" lon="-3.72734">
        <ele>172</ele>
        <time>2021-11-21T15:21:00.414Z</time>
      </trkpt>
      <trkpt lat="48.36407" lon="-3.72742">
        <ele>171.9</ele>
        <time>2021-11-21T15:21:01.283Z</time>
      </trkpt>
      <trkpt lat="48.36414" lon="-3.72743">
        <ele>171.6</ele>
        <time>2021-11-21T15:21:02.147Z</time>
      </trkpt>
      <trkpt lat="48.36429" lon="-3.72741">
        <ele>171.1</ele>
        <time>2021-11-21T15:21:03.767Z</time>
      </trkpt>
      <trkpt lat="48.36443" lon="-3.72735">
        <ele>170.5</ele>
        <time>2021-11-21T15:21:05.357Z</time>
      </trkpt>
      <trkpt lat="48.36456" lon="-3.72725">
        <ele>169.9</ele>
        <time>2021-11-21T15:21:06.999Z</time>
      </trkpt>
      <trkpt lat="48.36487" lon="-3.72703">
        <ele>168.1</ele>
        <time>2021-11-21T15:21:10.852Z</time>
      </trkpt>
      <trkpt lat="48.36522" lon="-3.72681">
        <ele>166.4</ele>
        <time>2021-11-21T15:21:15.081Z</time>
      </trkpt>
      <trkpt lat="48.36542" lon="-3.72672">
        <ele>166.5</ele>
        <time>2021-11-21T15:21:17.417Z</time>
      </trkpt>
      <trkpt lat="48.3655" lon="-3.72671">
        <ele>166.5</ele>
        <time>2021-11-21T15:21:18.281Z</time>
      </trkpt>
      <trkpt lat="48.36555" lon="-3.72672">
        <ele>166.3</ele>
        <time>2021-11-21T15:21:18.862Z</time>
      </trkpt>
      <trkpt lat="48.36558" lon="-3.72678">
        <ele>165.8</ele>
        <time>2021-11-21T15:21:19.407Z</time>
      </trkpt>
      <trkpt lat="48.36559" lon="-3.72683">
        <ele>165.5</ele>
        <time>2021-11-21T15:21:19.782Z</time>
      </trkpt>
      <trkpt lat="48.36559" lon="-3.72699">
        <ele>165</ele>
        <time>2021-11-21T15:21:20.991Z</time>
      </trkpt>
      <trkpt lat="48.36556" lon="-3.72745">
        <ele>165.1</ele>
        <time>2021-11-21T15:21:24.373Z</time>
      </trkpt>
      <trkpt lat="48.36549" lon="-3.72875">
        <ele>158.6</ele>
        <time>2021-11-21T15:21:34.080Z</time>
      </trkpt>
      <trkpt lat="48.36559" lon="-3.7292">
        <ele>155.4</ele>
        <time>2021-11-21T15:21:37.592Z</time>
      </trkpt>
      <trkpt lat="48.36595" lon="-3.72948">
        <ele>162.2</ele>
        <time>2021-11-21T15:21:42.036Z</time>
      </trkpt>
      <trkpt lat="48.36603" lon="-3.72996">
        <ele>160.2</ele>
        <time>2021-11-21T15:21:45.764Z</time>
      </trkpt>
      <trkpt lat="48.36612" lon="-3.73047">
        <ele>157.4</ele>
        <time>2021-11-21T15:21:49.599Z</time>
      </trkpt>
      <trkpt lat="48.36628" lon="-3.73101">
        <ele>156.7</ele>
        <time>2021-11-21T15:21:53.991Z</time>
      </trkpt>
      <trkpt lat="48.3663" lon="-3.73112">
        <ele>156.2</ele>
        <time>2021-11-21T15:21:54.805Z</time>
      </trkpt>
      <trkpt lat="48.36632" lon="-3.73131">
        <ele>155.4</ele>
        <time>2021-11-21T15:21:56.251Z</time>
      </trkpt>
      <trkpt lat="48.36634" lon="-3.7315">
        <ele>155.3</ele>
        <time>2021-11-21T15:21:57.696Z</time>
      </trkpt>
      <trkpt lat="48.36638" lon="-3.73162">
        <ele>155.8</ele>
        <time>2021-11-21T15:21:58.699Z</time>
      </trkpt>
      <trkpt lat="48.36644" lon="-3.73178">
        <ele>155.3</ele>
        <time>2021-11-21T15:22:00.047Z</time>
      </trkpt>
      <trkpt lat="48.3665" lon="-3.73184">
        <ele>154.6</ele>
        <time>2021-11-21T15:22:00.858Z</time>
      </trkpt>
      <trkpt lat="48.36651" lon="-3.73196">
        <ele>153.9</ele>
        <time>2021-11-21T15:22:01.744Z</time>
      </trkpt>
      <trkpt lat="48.36653" lon="-3.73206">
        <ele>153.2</ele>
        <time>2021-11-21T15:22:02.476Z</time>
      </trkpt>
      <trkpt lat="48.3666" lon="-3.73219">
        <ele>151.4</ele>
        <time>2021-11-21T15:22:03.726Z</time>
      </trkpt>
      <trkpt lat="48.3667" lon="-3.73246">
        <ele>148.6</ele>
        <time>2021-11-21T15:22:06.029Z</time>
      </trkpt>
      <trkpt lat="48.36673" lon="-3.73264">
        <ele>146.4</ele>
        <time>2021-11-21T15:22:07.383Z</time>
      </trkpt>
      <trkpt lat="48.36673" lon="-3.73272">
        <ele>145.8</ele>
        <time>2021-11-21T15:22:07.982Z</time>
      </trkpt>
      <trkpt lat="48.36674" lon="-3.73276">
        <ele>145.6</ele>
        <time>2021-11-21T15:22:08.256Z</time>
      </trkpt>
      <trkpt lat="48.36673" lon="-3.73287">
        <ele>144.5</ele>
        <time>2021-11-21T15:22:09.136Z</time>
      </trkpt>
      <trkpt lat="48.36669" lon="-3.73302">
        <ele>143.1</ele>
        <time>2021-11-21T15:22:10.317Z</time>
      </trkpt>
      <trkpt lat="48.36662" lon="-3.73314">
        <ele>142.2</ele>
        <time>2021-11-21T15:22:11.550Z</time>
      </trkpt>
      <trkpt lat="48.3665" lon="-3.73324">
        <ele>141.5</ele>
        <time>2021-11-21T15:22:13.024Z</time>
      </trkpt>
      <trkpt lat="48.36657" lon="-3.73337">
        <ele>140.6</ele>
        <time>2021-11-21T15:22:14.251Z</time>
      </trkpt>
      <trkpt lat="48.36661" lon="-3.73351">
        <ele>140.3</ele>
        <time>2021-11-21T15:22:15.339Z</time>
      </trkpt>
      <trkpt lat="48.36661" lon="-3.73363">
        <ele>140.2</ele>
        <time>2021-11-21T15:22:16.257Z</time>
      </trkpt>
      <trkpt lat="48.36659" lon="-3.73379">
        <ele>140</ele>
        <time>2021-11-21T15:22:17.461Z</time>
      </trkpt>
      <trkpt lat="48.36653" lon="-3.73406">
        <ele>140</ele>
        <time>2021-11-21T15:22:19.638Z</time>
      </trkpt>
      <trkpt lat="48.36651" lon="-3.73417">
        <ele>139.9</ele>
        <time>2021-11-21T15:22:20.436Z</time>
      </trkpt>
      <trkpt lat="48.36647" lon="-3.73429">
        <ele>139.8</ele>
        <time>2021-11-21T15:22:21.443Z</time>
      </trkpt>
      <trkpt lat="48.36635" lon="-3.73482">
        <ele>139.9</ele>
        <time>2021-11-21T15:22:25.573Z</time>
      </trkpt>
      <trkpt lat="48.36656" lon="-3.73498">
        <ele>142.1</ele>
        <time>2021-11-21T15:22:28.121Z</time>
      </trkpt>
      <trkpt lat="48.36681" lon="-3.73508">
        <ele>141.5</ele>
        <time>2021-11-21T15:22:31.014Z</time>
      </trkpt>
      <trkpt lat="48.36701" lon="-3.73513">
        <ele>143</ele>
        <time>2021-11-21T15:22:33.278Z</time>
      </trkpt>
      <trkpt lat="48.36732" lon="-3.73515">
        <ele>146.9</ele>
        <time>2021-11-21T15:22:36.790Z</time>
      </trkpt>
      <trkpt lat="48.36801" lon="-3.7353">
        <ele>148.9</ele>
        <time>2021-11-21T15:22:44.535Z</time>
      </trkpt>
      <trkpt lat="48.368" lon="-3.73534">
        <ele>149.9</ele>
        <time>2021-11-21T15:22:44.886Z</time>
      </trkpt>
      <trkpt lat="48.36797" lon="-3.73542">
        <ele>152.3</ele>
        <time>2021-11-21T15:22:45.539Z</time>
      </trkpt>
      <trkpt lat="48.36784" lon="-3.73549">
        <ele>154.3</ele>
        <time>2021-11-21T15:22:47.022Z</time>
      </trkpt>
      <trkpt lat="48.36772" lon="-3.73563">
        <ele>157.1</ele>
        <time>2021-11-21T15:22:48.724Z</time>
      </trkpt>
      <trkpt lat="48.36753" lon="-3.73569">
        <ele>158</ele>
        <time>2021-11-21T15:22:50.910Z</time>
      </trkpt>
      <trkpt lat="48.36735" lon="-3.73571">
        <ele>157.6</ele>
        <time>2021-11-21T15:22:52.859Z</time>
      </trkpt>
      <trkpt lat="48.36721" lon="-3.73578">
        <ele>157.6</ele>
        <time>2021-11-21T15:22:54.494Z</time>
      </trkpt>
      <trkpt lat="48.36701" lon="-3.73587">
        <ele>158.7</ele>
        <time>2021-11-21T15:22:56.860Z</time>
      </trkpt>
      <trkpt lat="48.36689" lon="-3.73594">
        <ele>158.4</ele>
        <time>2021-11-21T15:22:58.286Z</time>
      </trkpt>
      <trkpt lat="48.36685" lon="-3.73604">
        <ele>159</ele>
        <time>2021-11-21T15:22:59.203Z</time>
      </trkpt>
      <trkpt lat="48.36689" lon="-3.73615">
        <ele>160.9</ele>
        <time>2021-11-21T15:23:00.159Z</time>
      </trkpt>
      <trkpt lat="48.36705" lon="-3.73621">
        <ele>164.1</ele>
        <time>2021-11-21T15:23:01.956Z</time>
      </trkpt>
      <trkpt lat="48.36715" lon="-3.73627">
        <ele>166.6</ele>
        <time>2021-11-21T15:23:03.197Z</time>
      </trkpt>
      <trkpt lat="48.36726" lon="-3.73634">
        <ele>169</ele>
        <time>2021-11-21T15:23:04.501Z</time>
      </trkpt>
      <trkpt lat="48.36742" lon="-3.73647">
        <ele>173</ele>
        <time>2021-11-21T15:23:06.618Z</time>
      </trkpt>
      <trkpt lat="48.36734" lon="-3.73656">
        <ele>173.3</ele>
        <time>2021-11-21T15:23:07.713Z</time>
      </trkpt>
      <trkpt lat="48.36734" lon="-3.73667">
        <ele>175</ele>
        <time>2021-11-21T15:23:08.596Z</time>
      </trkpt>
      <trkpt lat="48.36728" lon="-3.73678">
        <ele>175.8</ele>
        <time>2021-11-21T15:23:09.686Z</time>
      </trkpt>
      <trkpt lat="48.36717" lon="-3.73685">
        <ele>175.2</ele>
        <time>2021-11-21T15:23:10.918Z</time>
      </trkpt>
      <trkpt lat="48.36712" lon="-3.73692">
        <ele>175.2</ele>
        <time>2021-11-21T15:23:11.720Z</time>
      </trkpt>
      <trkpt lat="48.36708" lon="-3.73702">
        <ele>175.6</ele>
        <time>2021-11-21T15:23:12.577Z</time>
      </trkpt>
      <trkpt lat="48.36708" lon="-3.73704">
        <ele>175.6</ele>
        <time>2021-11-21T15:23:12.737Z</time>
      </trkpt>
      <trkpt lat="48.36704" lon="-3.73715">
        <ele>176.1</ele>
        <time>2021-11-21T15:23:13.668Z</time>
      </trkpt>
      <trkpt lat="48.367" lon="-3.73723">
        <ele>176.3</ele>
        <time>2021-11-21T15:23:14.350Z</time>
      </trkpt>
      <trkpt lat="48.36696" lon="-3.73732">
        <ele>176.1</ele>
        <time>2021-11-21T15:23:15.219Z</time>
      </trkpt>
      <trkpt lat="48.36695" lon="-3.73741">
        <ele>176.9</ele>
        <time>2021-11-21T15:23:15.880Z</time>
      </trkpt>
      <trkpt lat="48.36694" lon="-3.73754">
        <ele>177.9</ele>
        <time>2021-11-21T15:23:16.897Z</time>
      </trkpt>
      <trkpt lat="48.36692" lon="-3.73769">
        <ele>178.3</ele>
        <time>2021-11-21T15:23:17.999Z</time>
      </trkpt>
      <trkpt lat="48.36694" lon="-3.73782">
        <ele>179.4</ele>
        <time>2021-11-21T15:23:18.969Z</time>
      </trkpt>
      <trkpt lat="48.36697" lon="-3.73798">
        <ele>181.2</ele>
        <time>2021-11-21T15:23:20.247Z</time>
      </trkpt>
      <trkpt lat="48.367" lon="-3.73816">
        <ele>182.5</ele>
        <time>2021-11-21T15:23:21.629Z</time>
      </trkpt>
      <trkpt lat="48.36698" lon="-3.73836">
        <ele>183.3</ele>
        <time>2021-11-21T15:23:23.118Z</time>
      </trkpt>
      <trkpt lat="48.36697" lon="-3.73851">
        <ele>184.3</ele>
        <time>2021-11-21T15:23:24.210Z</time>
      </trkpt>
      <trkpt lat="48.36695" lon="-3.73864">
        <ele>184.9</ele>
        <time>2021-11-21T15:23:25.180Z</time>
      </trkpt>
      <trkpt lat="48.36695" lon="-3.73879">
        <ele>186.3</ele>
        <time>2021-11-21T15:23:26.350Z</time>
      </trkpt>
      <trkpt lat="48.36697" lon="-3.73897">
        <ele>188.1</ele>
        <time>2021-11-21T15:23:27.706Z</time>
      </trkpt>
      <trkpt lat="48.36699" lon="-3.73923">
        <ele>189.1</ele>
        <time>2021-11-21T15:23:29.625Z</time>
      </trkpt>
      <trkpt lat="48.367" lon="-3.73946">
        <ele>190.1</ele>
        <time>2021-11-21T15:23:31.354Z</time>
      </trkpt>
      <trkpt lat="48.36699" lon="-3.73963">
        <ele>190.6</ele>
        <time>2021-11-21T15:23:32.605Z</time>
      </trkpt>
      <trkpt lat="48.36698" lon="-3.73981">
        <ele>190.7</ele>
        <time>2021-11-21T15:23:33.904Z</time>
      </trkpt>
      <trkpt lat="48.36702" lon="-3.74003">
        <ele>191.3</ele>
        <time>2021-11-21T15:23:35.547Z</time>
      </trkpt>
      <trkpt lat="48.36702" lon="-3.74014">
        <ele>190.7</ele>
        <time>2021-11-21T15:23:36.410Z</time>
      </trkpt>
      <trkpt lat="48.36713" lon="-3.74049">
        <ele>192.2</ele>
        <time>2021-11-21T15:23:39.293Z</time>
      </trkpt>
      <trkpt lat="48.3671" lon="-3.74061">
        <ele>191.8</ele>
        <time>2021-11-21T15:23:40.222Z</time>
      </trkpt>
      <trkpt lat="48.36714" lon="-3.74057">
        <ele>192.5</ele>
        <time>2021-11-21T15:23:40.751Z</time>
      </trkpt>
      <trkpt lat="48.3672" lon="-3.74057">
        <ele>193.5</ele>
        <time>2021-11-21T15:23:41.416Z</time>
      </trkpt>
      <trkpt lat="48.36722" lon="-3.74066">
        <ele>193.9</ele>
        <time>2021-11-21T15:23:42.078Z</time>
      </trkpt>
      <trkpt lat="48.36719" lon="-3.74091">
        <ele>196.1</ele>
        <time>2021-11-21T15:23:44.008Z</time>
      </trkpt>
      <trkpt lat="48.36714" lon="-3.74109">
        <ele>196</ele>
        <time>2021-11-21T15:23:45.432Z</time>
      </trkpt>
      <trkpt lat="48.36717" lon="-3.7412">
        <ele>196.9</ele>
        <time>2021-11-21T15:23:46.279Z</time>
      </trkpt>
      <trkpt lat="48.36726" lon="-3.74135">
        <ele>199.3</ele>
        <time>2021-11-21T15:23:47.717Z</time>
      </trkpt>
      <trkpt lat="48.36728" lon="-3.74147">
        <ele>198.8</ele>
        <time>2021-11-21T15:23:48.657Z</time>
      </trkpt>
      <trkpt lat="48.36734" lon="-3.7416">
        <ele>198.8</ele>
        <time>2021-11-21T15:23:49.826Z</time>
      </trkpt>
      <trkpt lat="48.3674" lon="-3.74171">
        <ele>198.4</ele>
        <time>2021-11-21T15:23:50.911Z</time>
      </trkpt>
      <trkpt lat="48.36747" lon="-3.74176">
        <ele>198.4</ele>
        <time>2021-11-21T15:23:51.747Z</time>
      </trkpt>
      <trkpt lat="48.36763" lon="-3.74181">
        <ele>198.9</ele>
        <time>2021-11-21T15:23:53.504Z</time>
      </trkpt>
      <trkpt lat="48.36777" lon="-3.74179">
        <ele>200.2</ele>
        <time>2021-11-21T15:23:55.115Z</time>
      </trkpt>
      <trkpt lat="48.36793" lon="-3.74182">
        <ele>200.2</ele>
        <time>2021-11-21T15:23:56.932Z</time>
      </trkpt>
      <trkpt lat="48.36836" lon="-3.74216">
        <ele>197.5</ele>
        <time>2021-11-21T15:24:02.315Z</time>
      </trkpt>
      <trkpt lat="48.36848" lon="-3.74224">
        <ele>197.4</ele>
        <time>2021-11-21T15:24:03.802Z</time>
      </trkpt>
      <trkpt lat="48.36858" lon="-3.74239">
        <ele>196.7</ele>
        <time>2021-11-21T15:24:05.369Z</time>
      </trkpt>
      <trkpt lat="48.36869" lon="-3.74255">
        <ele>196.3</ele>
        <time>2021-11-21T15:24:07.029Z</time>
      </trkpt>
      <trkpt lat="48.36874" lon="-3.74267">
        <ele>196.1</ele>
        <time>2021-11-21T15:24:08.055Z</time>
      </trkpt>
      <trkpt lat="48.36872" lon="-3.74277">
        <ele>195.2</ele>
        <time>2021-11-21T15:24:08.830Z</time>
      </trkpt>
      <trkpt lat="48.36871" lon="-3.74277">
        <ele>195.2</ele>
        <time>2021-11-21T15:24:08.844Z</time>
      </trkpt>
      <trkpt lat="48.3687" lon="-3.74284">
        <ele>194.5</ele>
        <time>2021-11-21T15:24:09.432Z</time>
      </trkpt>
      <trkpt lat="48.36865" lon="-3.74317">
        <ele>191.1</ele>
        <time>2021-11-21T15:24:11.916Z</time>
      </trkpt>
      <trkpt lat="48.36863" lon="-3.74333">
        <ele>189.4</ele>
        <time>2021-11-21T15:24:13.164Z</time>
      </trkpt>
      <trkpt lat="48.36857" lon="-3.74339">
        <ele>187.7</ele>
        <time>2021-11-21T15:24:13.962Z</time>
      </trkpt>
      <trkpt lat="48.36851" lon="-3.74354">
        <ele>185.2</ele>
        <time>2021-11-21T15:24:15.249Z</time>
      </trkpt>
      <trkpt lat="48.36849" lon="-3.74379">
        <ele>182.4</ele>
        <time>2021-11-21T15:24:17.133Z</time>
      </trkpt>
      <trkpt lat="48.36841" lon="-3.74409">
        <ele>177.2</ele>
        <time>2021-11-21T15:24:19.464Z</time>
      </trkpt>
      <trkpt lat="48.36838" lon="-3.74436">
        <ele>173.9</ele>
        <time>2021-11-21T15:24:21.492Z</time>
      </trkpt>
      <trkpt lat="48.36839" lon="-3.74454">
        <ele>172.9</ele>
        <time>2021-11-21T15:24:22.884Z</time>
      </trkpt>
      <trkpt lat="48.36839" lon="-3.74473">
        <ele>171.3</ele>
        <time>2021-11-21T15:24:24.319Z</time>
      </trkpt>
      <trkpt lat="48.36843" lon="-3.74496">
        <ele>170.7</ele>
        <time>2021-11-21T15:24:26.022Z</time>
      </trkpt>
      <trkpt lat="48.36839" lon="-3.74513">
        <ele>168</ele>
        <time>2021-11-21T15:24:27.404Z</time>
      </trkpt>
      <trkpt lat="48.36838" lon="-3.74514">
        <ele>167.6</ele>
        <time>2021-11-21T15:24:27.524Z</time>
      </trkpt>
      <trkpt lat="48.36839" lon="-3.74513">
        <ele>168</ele>
        <time>2021-11-21T15:24:27.645Z</time>
      </trkpt>
      <trkpt lat="48.36828" lon="-3.74526">
        <ele>162.9</ele>
        <time>2021-11-21T15:24:29.224Z</time>
      </trkpt>
      <trkpt lat="48.36809" lon="-3.74535">
        <ele>159.2</ele>
        <time>2021-11-21T15:24:31.429Z</time>
      </trkpt>
      <trkpt lat="48.36798" lon="-3.74539">
        <ele>158.4</ele>
        <time>2021-11-21T15:24:32.658Z</time>
      </trkpt>
      <trkpt lat="48.36791" lon="-3.7453">
        <ele>158.5</ele>
        <time>2021-11-21T15:24:33.756Z</time>
      </trkpt>
      <trkpt lat="48.36784" lon="-3.74513">
        <ele>158.1</ele>
        <time>2021-11-21T15:24:35.198Z</time>
      </trkpt>
      <trkpt lat="48.3678" lon="-3.74502">
        <ele>157.7</ele>
        <time>2021-11-21T15:24:36.145Z</time>
      </trkpt>
      <trkpt lat="48.36772" lon="-3.74499">
        <ele>157.7</ele>
        <time>2021-11-21T15:24:37.021Z</time>
      </trkpt>
      <trkpt lat="48.36766" lon="-3.7449">
        <ele>157.2</ele>
        <time>2021-11-21T15:24:37.953Z</time>
      </trkpt>
      <trkpt lat="48.36764" lon="-3.74505">
        <ele>158.4</ele>
        <time>2021-11-21T15:24:39.104Z</time>
      </trkpt>
      <trkpt lat="48.3678" lon="-3.74603">
        <ele>163.4</ele>
        <time>2021-11-21T15:24:46.534Z</time>
      </trkpt>
      <trkpt lat="48.36785" lon="-3.74628">
        <ele>164.1</ele>
        <time>2021-11-21T15:24:48.013Z</time>
      </trkpt>
      <trkpt lat="48.3679" lon="-3.74662">
        <ele>164.2</ele>
        <time>2021-11-21T15:24:49.470Z</time>
      </trkpt>
      <trkpt lat="48.36792" lon="-3.74673">
        <ele>164.2</ele>
        <time>2021-11-21T15:24:49.603Z</time>
      </trkpt>
      <trkpt lat="48.36794" lon="-3.74719">
        <ele>165</ele>
        <time>2021-11-21T15:24:50.154Z</time>
      </trkpt>
      <trkpt lat="48.36792" lon="-3.74727">
        <ele>165.6</ele>
        <time>2021-11-21T15:24:50.252Z</time>
      </trkpt>
      <trkpt lat="48.36783" lon="-3.74708">
        <ele>167.8</ele>
        <time>2021-11-21T15:24:50.533Z</time>
      </trkpt>
      <trkpt lat="48.3677" lon="-3.74684">
        <ele>170.7</ele>
        <time>2021-11-21T15:24:50.890Z</time>
      </trkpt>
      <trkpt lat="48.36763" lon="-3.74673">
        <ele>172.6</ele>
        <time>2021-11-21T15:24:51.076Z</time>
      </trkpt>
      <trkpt lat="48.3675" lon="-3.74667">
        <ele>176.3</ele>
        <time>2021-11-21T15:24:52.719Z</time>
      </trkpt>
      <trkpt lat="48.36746" lon="-3.7466">
        <ele>176.5</ele>
        <time>2021-11-21T15:24:53.416Z</time>
      </trkpt>
      <trkpt lat="48.3674" lon="-3.74655">
        <ele>176.9</ele>
        <time>2021-11-21T15:24:54.153Z</time>
      </trkpt>
      <trkpt lat="48.36735" lon="-3.74655">
        <ele>177.6</ele>
        <time>2021-11-21T15:24:54.730Z</time>
      </trkpt>
      <trkpt lat="48.3673" lon="-3.74656">
        <ele>178.2</ele>
        <time>2021-11-21T15:24:55.314Z</time>
      </trkpt>
      <trkpt lat="48.36723" lon="-3.74657">
        <ele>178.7</ele>
        <time>2021-11-21T15:24:56.131Z</time>
      </trkpt>
      <trkpt lat="48.36724" lon="-3.74699">
        <ele>179.8</ele>
        <time>2021-11-21T15:24:59.224Z</time>
      </trkpt>
      <trkpt lat="48.36728" lon="-3.74711">
        <ele>179.6</ele>
        <time>2021-11-21T15:25:00.247Z</time>
      </trkpt>
      <trkpt lat="48.3673" lon="-3.74726">
        <ele>179.7</ele>
        <time>2021-11-21T15:25:01.385Z</time>
      </trkpt>
      <trkpt lat="48.36731" lon="-3.74743">
        <ele>179.9</ele>
        <time>2021-11-21T15:25:02.688Z</time>
      </trkpt>
      <trkpt lat="48.36728" lon="-3.7476">
        <ele>180.2</ele>
        <time>2021-11-21T15:25:03.984Z</time>
      </trkpt>
      <trkpt lat="48.36716" lon="-3.74781">
        <ele>181.1</ele>
        <time>2021-11-21T15:25:06.030Z</time>
      </trkpt>
      <trkpt lat="48.36697" lon="-3.74802">
        <ele>181.4</ele>
        <time>2021-11-21T15:25:08.708Z</time>
      </trkpt>
      <trkpt lat="48.36668" lon="-3.74832">
        <ele>179.1</ele>
        <time>2021-11-21T15:25:12.614Z</time>
      </trkpt>
      <trkpt lat="48.36661" lon="-3.74843">
        <ele>178.6</ele>
        <time>2021-11-21T15:25:13.732Z</time>
      </trkpt>
      <trkpt lat="48.36655" lon="-3.74863">
        <ele>177.5</ele>
        <time>2021-11-21T15:25:15.303Z</time>
      </trkpt>
      <trkpt lat="48.36652" lon="-3.74879">
        <ele>177</ele>
        <time>2021-11-21T15:25:16.562Z</time>
      </trkpt>
      <trkpt lat="48.36659" lon="-3.74882">
        <ele>176.8</ele>
        <time>2021-11-21T15:25:17.351Z</time>
      </trkpt>
      <trkpt lat="48.36661" lon="-3.74918">
        <ele>175.9</ele>
        <time>2021-11-21T15:25:20.030Z</time>
      </trkpt>
      <trkpt lat="48.36664" lon="-3.74948">
        <ele>174.8</ele>
        <time>2021-11-21T15:25:22.300Z</time>
      </trkpt>
      <trkpt lat="48.36668" lon="-3.74982">
        <ele>174</ele>
        <time>2021-11-21T15:25:24.884Z</time>
      </trkpt>
      <trkpt lat="48.36675" lon="-3.75054">
        <ele>174.5</ele>
        <time>2021-11-21T15:25:30.216Z</time>
      </trkpt>
      <trkpt lat="48.36679" lon="-3.75081">
        <ele>173.7</ele>
        <time>2021-11-21T15:25:32.282Z</time>
      </trkpt>
      <trkpt lat="48.36689" lon="-3.75129">
        <ele>172.7</ele>
        <time>2021-11-21T15:25:36.018Z</time>
      </trkpt>
      <trkpt lat="48.36697" lon="-3.7517">
        <ele>174.1</ele>
        <time>2021-11-21T15:25:39.182Z</time>
      </trkpt>
      <trkpt lat="48.367" lon="-3.75197">
        <ele>175.7</ele>
        <time>2021-11-21T15:25:41.206Z</time>
      </trkpt>
      <trkpt lat="48.36703" lon="-3.75218">
        <ele>176.9</ele>
        <time>2021-11-21T15:25:42.848Z</time>
      </trkpt>
      <trkpt lat="48.36704" lon="-3.7523">
        <ele>177.4</ele>
        <time>2021-11-21T15:25:43.755Z</time>
      </trkpt>
      <trkpt lat="48.36706" lon="-3.75242">
        <ele>177.9</ele>
        <time>2021-11-21T15:25:44.638Z</time>
      </trkpt>
      <trkpt lat="48.36708" lon="-3.75254">
        <ele>178.2</ele>
        <time>2021-11-21T15:25:45.557Z</time>
      </trkpt>
      <trkpt lat="48.36708" lon="-3.75269">
        <ele>178.3</ele>
        <time>2021-11-21T15:25:46.637Z</time>
      </trkpt>
      <trkpt lat="48.36706" lon="-3.7528">
        <ele>178.2</ele>
        <time>2021-11-21T15:25:47.513Z</time>
      </trkpt>
      <trkpt lat="48.36708" lon="-3.75291">
        <ele>178.1</ele>
        <time>2021-11-21T15:25:48.304Z</time>
      </trkpt>
      <trkpt lat="48.36711" lon="-3.7531">
        <ele>177.8</ele>
        <time>2021-11-21T15:25:49.765Z</time>
      </trkpt>
      <trkpt lat="48.36717" lon="-3.75348">
        <ele>177.6</ele>
        <time>2021-11-21T15:25:52.612Z</time>
      </trkpt>
      <trkpt lat="48.36718" lon="-3.75352">
        <ele>177.6</ele>
        <time>2021-11-21T15:25:52.956Z</time>
      </trkpt>
      <trkpt lat="48.36721" lon="-3.75375">
        <ele>178.3</ele>
        <time>2021-11-21T15:25:54.735Z</time>
      </trkpt>
      <trkpt lat="48.36727" lon="-3.75418">
        <ele>179.6</ele>
        <time>2021-11-21T15:25:57.973Z</time>
      </trkpt>
      <trkpt lat="48.36734" lon="-3.75484">
        <ele>179.2</ele>
        <time>2021-11-21T15:26:02.874Z</time>
      </trkpt>
      <trkpt lat="48.36734" lon="-3.75507">
        <ele>178.9</ele>
        <time>2021-11-21T15:26:04.562Z</time>
      </trkpt>
      <trkpt lat="48.36732" lon="-3.75531">
        <ele>178.4</ele>
        <time>2021-11-21T15:26:06.403Z</time>
      </trkpt>
      <trkpt lat="48.36729" lon="-3.75558">
        <ele>177.6</ele>
        <time>2021-11-21T15:26:08.436Z</time>
      </trkpt>
      <trkpt lat="48.36728" lon="-3.75563">
        <ele>177.4</ele>
        <time>2021-11-21T15:26:08.851Z</time>
      </trkpt>
      <trkpt lat="48.36726" lon="-3.75577">
        <ele>177</ele>
        <time>2021-11-21T15:26:09.897Z</time>
      </trkpt>
      <trkpt lat="48.36723" lon="-3.75588">
        <ele>176.5</ele>
        <time>2021-11-21T15:26:10.829Z</time>
      </trkpt>
      <trkpt lat="48.36723" lon="-3.75598">
        <ele>176.1</ele>
        <time>2021-11-21T15:26:11.564Z</time>
      </trkpt>
      <trkpt lat="48.36724" lon="-3.75611">
        <ele>175.7</ele>
        <time>2021-11-21T15:26:12.534Z</time>
      </trkpt>
      <trkpt lat="48.36731" lon="-3.75636">
        <ele>174.9</ele>
        <time>2021-11-21T15:26:14.521Z</time>
      </trkpt>
      <trkpt lat="48.36736" lon="-3.75653">
        <ele>173.5</ele>
        <time>2021-11-21T15:26:15.882Z</time>
      </trkpt>
      <trkpt lat="48.36737" lon="-3.75659">
        <ele>172.9</ele>
        <time>2021-11-21T15:26:16.368Z</time>
      </trkpt>
      <trkpt lat="48.36739" lon="-3.75673">
        <ele>172.6</ele>
        <time>2021-11-21T15:26:17.414Z</time>
      </trkpt>
      <trkpt lat="48.36739" lon="-3.75685">
        <ele>172.4</ele>
        <time>2021-11-21T15:26:18.332Z</time>
      </trkpt>
      <trkpt lat="48.36739" lon="-3.75691">
        <ele>172.2</ele>
        <time>2021-11-21T15:26:18.782Z</time>
      </trkpt>
      <trkpt lat="48.36739" lon="-3.75695">
        <ele>172.2</ele>
        <time>2021-11-21T15:26:19.082Z</time>
      </trkpt>
      <trkpt lat="48.36739" lon="-3.7571">
        <ele>172.5</ele>
        <time>2021-11-21T15:26:20.215Z</time>
      </trkpt>
      <trkpt lat="48.36738" lon="-3.75723">
        <ele>172.7</ele>
        <time>2021-11-21T15:26:21.153Z</time>
      </trkpt>
      <trkpt lat="48.36735" lon="-3.75724">
        <ele>172</ele>
        <time>2021-11-21T15:26:21.488Z</time>
      </trkpt>
      <trkpt lat="48.36732" lon="-3.75726">
        <ele>171.6</ele>
        <time>2021-11-21T15:26:21.844Z</time>
      </trkpt>
      <trkpt lat="48.36727" lon="-3.7573">
        <ele>171</ele>
        <time>2021-11-21T15:26:22.510Z</time>
      </trkpt>
      <trkpt lat="48.36724" lon="-3.75733">
        <ele>170.6</ele>
        <time>2021-11-21T15:26:22.927Z</time>
      </trkpt>
      <trkpt lat="48.3672" lon="-3.75735">
        <ele>170</ele>
        <time>2021-11-21T15:26:23.434Z</time>
      </trkpt>
      <trkpt lat="48.36713" lon="-3.75738">
        <ele>169.2</ele>
        <time>2021-11-21T15:26:24.179Z</time>
      </trkpt>
      <trkpt lat="48.36706" lon="-3.7574">
        <ele>168.9</ele>
        <time>2021-11-21T15:26:24.953Z</time>
      </trkpt>
      <trkpt lat="48.36702" lon="-3.75741">
        <ele>168.8</ele>
        <time>2021-11-21T15:26:25.437Z</time>
      </trkpt>
      <trkpt lat="48.367" lon="-3.75741">
        <ele>168.7</ele>
        <time>2021-11-21T15:26:25.724Z</time>
      </trkpt>
      <trkpt lat="48.3669" lon="-3.75741">
        <ele>168.4</ele>
        <time>2021-11-21T15:26:26.823Z</time>
      </trkpt>
      <trkpt lat="48.36682" lon="-3.75741">
        <ele>168.2</ele>
        <time>2021-11-21T15:26:27.731Z</time>
      </trkpt>
      <trkpt lat="48.36678" lon="-3.75741">
        <ele>168.2</ele>
        <time>2021-11-21T15:26:28.164Z</time>
      </trkpt>
      <trkpt lat="48.36675" lon="-3.75739">
        <ele>168.1</ele>
        <time>2021-11-21T15:26:28.524Z</time>
      </trkpt>
      <trkpt lat="48.3667" lon="-3.75736">
        <ele>168.1</ele>
        <time>2021-11-21T15:26:29.138Z</time>
      </trkpt>
      <trkpt lat="48.36665" lon="-3.75733">
        <ele>168.1</ele>
        <time>2021-11-21T15:26:29.725Z</time>
      </trkpt>
      <trkpt lat="48.36661" lon="-3.75729">
        <ele>168.2</ele>
        <time>2021-11-21T15:26:30.268Z</time>
      </trkpt>
      <trkpt lat="48.36657" lon="-3.75725">
        <ele>168.2</ele>
        <time>2021-11-21T15:26:30.795Z</time>
      </trkpt>
      <trkpt lat="48.36654" lon="-3.75722">
        <ele>168.2</ele>
        <time>2021-11-21T15:26:31.218Z</time>
      </trkpt>
      <trkpt lat="48.36647" lon="-3.75717">
        <ele>168.1</ele>
        <time>2021-11-21T15:26:32.092Z</time>
      </trkpt>
      <trkpt lat="48.36639" lon="-3.75713">
        <ele>168.3</ele>
        <time>2021-11-21T15:26:32.959Z</time>
      </trkpt>
      <trkpt lat="48.36628" lon="-3.75705">
        <ele>168.6</ele>
        <time>2021-11-21T15:26:34.321Z</time>
      </trkpt>
      <trkpt lat="48.36621" lon="-3.75697">
        <ele>169.3</ele>
        <time>2021-11-21T15:26:35.333Z</time>
      </trkpt>
      <trkpt lat="48.36614" lon="-3.75682">
        <ele>170.7</ele>
        <time>2021-11-21T15:26:36.702Z</time>
      </trkpt>
      <trkpt lat="48.36569" lon="-3.75546">
        <ele>169.4</ele>
        <time>2021-11-21T15:26:47.901Z</time>
      </trkpt>
      <trkpt lat="48.36565" lon="-3.75536">
        <ele>168.3</ele>
        <time>2021-11-21T15:26:48.831Z</time>
      </trkpt>
      <trkpt lat="48.36552" lon="-3.75517">
        <ele>170.8</ele>
        <time>2021-11-21T15:26:50.791Z</time>
      </trkpt>
      <trkpt lat="48.36541" lon="-3.7547">
        <ele>168.7</ele>
        <time>2021-11-21T15:26:54.473Z</time>
      </trkpt>
      <trkpt lat="48.36524" lon="-3.75416">
        <ele>168.8</ele>
        <time>2021-11-21T15:26:58.895Z</time>
      </trkpt>
      <trkpt lat="48.36515" lon="-3.75371">
        <ele>170</ele>
        <time>2021-11-21T15:27:02.351Z</time>
      </trkpt>
      <trkpt lat="48.36501" lon="-3.75261">
        <ele>168.2</ele>
        <time>2021-11-21T15:27:10.663Z</time>
      </trkpt>
      <trkpt lat="48.36496" lon="-3.75232">
        <ele>168.2</ele>
        <time>2021-11-21T15:27:12.812Z</time>
      </trkpt>
      <trkpt lat="48.36491" lon="-3.75211">
        <ele>167.6</ele>
        <time>2021-11-21T15:27:14.518Z</time>
      </trkpt>
      <trkpt lat="48.36488" lon="-3.75197">
        <ele>167.1</ele>
        <time>2021-11-21T15:27:15.574Z</time>
      </trkpt>
      <trkpt lat="48.36481" lon="-3.75186">
        <ele>167.2</ele>
        <time>2021-11-21T15:27:16.694Z</time>
      </trkpt>
      <trkpt lat="48.36469" lon="-3.75167">
        <ele>167.2</ele>
        <time>2021-11-21T15:27:18.613Z</time>
      </trkpt>
      <trkpt lat="48.36457" lon="-3.75151">
        <ele>167.6</ele>
        <time>2021-11-21T15:27:20.481Z</time>
      </trkpt>
      <trkpt lat="48.36452" lon="-3.75147">
        <ele>167.9</ele>
        <time>2021-11-21T15:27:21.107Z</time>
      </trkpt>
      <trkpt lat="48.36446" lon="-3.75147">
        <ele>167.5</ele>
        <time>2021-11-21T15:27:21.676Z</time>
      </trkpt>
      <trkpt lat="48.36442" lon="-3.7515">
        <ele>167.1</ele>
        <time>2021-11-21T15:27:22.197Z</time>
      </trkpt>
      <trkpt lat="48.36441" lon="-3.75157">
        <ele>167</ele>
        <time>2021-11-21T15:27:22.692Z</time>
      </trkpt>
      <trkpt lat="48.36442" lon="-3.75187">
        <ele>167.4</ele>
        <time>2021-11-21T15:27:24.984Z</time>
      </trkpt>
      <trkpt lat="48.36441" lon="-3.75201">
        <ele>167.7</ele>
        <time>2021-11-21T15:27:25.987Z</time>
      </trkpt>
      <trkpt lat="48.36441" lon="-3.75213">
        <ele>168</ele>
        <time>2021-11-21T15:27:26.842Z</time>
      </trkpt>
      <trkpt lat="48.36441" lon="-3.75222">
        <ele>168</ele>
        <time>2021-11-21T15:27:27.533Z</time>
      </trkpt>
      <trkpt lat="48.36443" lon="-3.75256">
        <ele>167.7</ele>
        <time>2021-11-21T15:27:30.045Z</time>
      </trkpt>
      <trkpt lat="48.36442" lon="-3.75282">
        <ele>167.8</ele>
        <time>2021-11-21T15:27:31.991Z</time>
      </trkpt>
      <trkpt lat="48.36438" lon="-3.75309">
        <ele>168.2</ele>
        <time>2021-11-21T15:27:34.032Z</time>
      </trkpt>
      <trkpt lat="48.36423" lon="-3.75364">
        <ele>167.9</ele>
        <time>2021-11-21T15:27:38.395Z</time>
      </trkpt>
      <trkpt lat="48.36419" lon="-3.75377">
        <ele>167.5</ele>
        <time>2021-11-21T15:27:39.518Z</time>
      </trkpt>
      <trkpt lat="48.36413" lon="-3.75395">
        <ele>168.8</ele>
        <time>2021-11-21T15:27:41.013Z</time>
      </trkpt>
      <trkpt lat="48.36404" lon="-3.75415">
        <ele>169.4</ele>
        <time>2021-11-21T15:27:42.751Z</time>
      </trkpt>
      <trkpt lat="48.36396" lon="-3.75427">
        <ele>169.9</ele>
        <time>2021-11-21T15:27:44.033Z</time>
      </trkpt>
      <trkpt lat="48.36386" lon="-3.75435">
        <ele>170.2</ele>
        <time>2021-11-21T15:27:45.258Z</time>
      </trkpt>
      <trkpt lat="48.36371" lon="-3.75443">
        <ele>168.9</ele>
        <time>2021-11-21T15:27:47.042Z</time>
      </trkpt>
      <trkpt lat="48.36351" lon="-3.75452">
        <ele>169.2</ele>
        <time>2021-11-21T15:27:49.395Z</time>
      </trkpt>
      <trkpt lat="48.36341" lon="-3.75457">
        <ele>169.3</ele>
        <time>2021-11-21T15:27:50.550Z</time>
      </trkpt>
      <trkpt lat="48.36335" lon="-3.7546">
        <ele>169.2</ele>
        <time>2021-11-21T15:27:51.205Z</time>
      </trkpt>
      <trkpt lat="48.36327" lon="-3.75465">
        <ele>168.7</ele>
        <time>2021-11-21T15:27:52.230Z</time>
      </trkpt>
      <trkpt lat="48.36323" lon="-3.7547">
        <ele>168.4</ele>
        <time>2021-11-21T15:27:52.807Z</time>
      </trkpt>
      <trkpt lat="48.36316" lon="-3.75482">
        <ele>169.3</ele>
        <time>2021-11-21T15:27:53.987Z</time>
      </trkpt>
      <trkpt lat="48.36299" lon="-3.75507">
        <ele>168.4</ele>
        <time>2021-11-21T15:27:56.574Z</time>
      </trkpt>
      <trkpt lat="48.36292" lon="-3.75516">
        <ele>169.3</ele>
        <time>2021-11-21T15:27:57.633Z</time>
      </trkpt>
      <trkpt lat="48.36287" lon="-3.75519">
        <ele>169.2</ele>
        <time>2021-11-21T15:27:58.272Z</time>
      </trkpt>
      <trkpt lat="48.36282" lon="-3.7552">
        <ele>168.7</ele>
        <time>2021-11-21T15:27:58.834Z</time>
      </trkpt>
      <trkpt lat="48.36273" lon="-3.75519">
        <ele>167.3</ele>
        <time>2021-11-21T15:27:59.756Z</time>
      </trkpt>
      <trkpt lat="48.36265" lon="-3.7552">
        <ele>167.4</ele>
        <time>2021-11-21T15:28:00.712Z</time>
      </trkpt>
      <trkpt lat="48.36248" lon="-3.75522">
        <ele>167.6</ele>
        <time>2021-11-21T15:28:02.627Z</time>
      </trkpt>
      <trkpt lat="48.36243" lon="-3.75521">
        <ele>167.6</ele>
        <time>2021-11-21T15:28:03.147Z</time>
      </trkpt>
      <trkpt lat="48.3624" lon="-3.75519">
        <ele>167.5</ele>
        <time>2021-11-21T15:28:03.538Z</time>
      </trkpt>
      <trkpt lat="48.36237" lon="-3.75519">
        <ele>167.5</ele>
        <time>2021-11-21T15:28:03.874Z</time>
      </trkpt>
      <trkpt lat="48.36231" lon="-3.7552">
        <ele>167.6</ele>
        <time>2021-11-21T15:28:04.496Z</time>
      </trkpt>
      <trkpt lat="48.36225" lon="-3.75521">
        <ele>167.7</ele>
        <time>2021-11-21T15:28:05.209Z</time>
      </trkpt>
      <trkpt lat="48.3622" lon="-3.75518">
        <ele>167.7</ele>
        <time>2021-11-21T15:28:05.761Z</time>
      </trkpt>
      <trkpt lat="48.36216" lon="-3.75515">
        <ele>167.6</ele>
        <time>2021-11-21T15:28:06.302Z</time>
      </trkpt>
      <trkpt lat="48.36212" lon="-3.75511">
        <ele>167.5</ele>
        <time>2021-11-21T15:28:06.846Z</time>
      </trkpt>
      <trkpt lat="48.36206" lon="-3.75507">
        <ele>167.5</ele>
        <time>2021-11-21T15:28:07.577Z</time>
      </trkpt>
      <trkpt lat="48.36201" lon="-3.75506">
        <ele>167.5</ele>
        <time>2021-11-21T15:28:08.154Z</time>
      </trkpt>
      <trkpt lat="48.36195" lon="-3.75505">
        <ele>167.5</ele>
        <time>2021-11-21T15:28:08.826Z</time>
      </trkpt>
      <trkpt lat="48.36184" lon="-3.75507">
        <ele>167.6</ele>
        <time>2021-11-21T15:28:10.026Z</time>
      </trkpt>
      <trkpt lat="48.36169" lon="-3.75512">
        <ele>168</ele>
        <time>2021-11-21T15:28:11.723Z</time>
      </trkpt>
      <trkpt lat="48.36158" lon="-3.75515">
        <ele>168</ele>
        <time>2021-11-21T15:28:12.935Z</time>
      </trkpt>
      <trkpt lat="48.36151" lon="-3.75518">
        <ele>167.6</ele>
        <time>2021-11-21T15:28:13.768Z</time>
      </trkpt>
      <trkpt lat="48.36146" lon="-3.7552">
        <ele>167.4</ele>
        <time>2021-11-21T15:28:14.399Z</time>
      </trkpt>
      <trkpt lat="48.36141" lon="-3.75523">
        <ele>167.4</ele>
        <time>2021-11-21T15:28:14.964Z</time>
      </trkpt>
      <trkpt lat="48.36134" lon="-3.75529">
        <ele>167.5</ele>
        <time>2021-11-21T15:28:15.899Z</time>
      </trkpt>
      <trkpt lat="48.36131" lon="-3.75532">
        <ele>167.6</ele>
        <time>2021-11-21T15:28:16.255Z</time>
      </trkpt>
      <trkpt lat="48.36128" lon="-3.75537">
        <ele>167.7</ele>
        <time>2021-11-21T15:28:16.734Z</time>
      </trkpt>
      <trkpt lat="48.36124" lon="-3.75545">
        <ele>167.5</ele>
        <time>2021-11-21T15:28:17.503Z</time>
      </trkpt>
      <trkpt lat="48.36121" lon="-3.75554">
        <ele>167.4</ele>
        <time>2021-11-21T15:28:18.270Z</time>
      </trkpt>
      <trkpt lat="48.3612" lon="-3.75558">
        <ele>167.5</ele>
        <time>2021-11-21T15:28:18.534Z</time>
      </trkpt>
      <trkpt lat="48.3612" lon="-3.75568">
        <ele>167.6</ele>
        <time>2021-11-21T15:28:19.313Z</time>
      </trkpt>
      <trkpt lat="48.36119" lon="-3.75584">
        <ele>167.7</ele>
        <time>2021-11-21T15:28:20.446Z</time>
      </trkpt>
      <trkpt lat="48.36117" lon="-3.75601">
        <ele>168</ele>
        <time>2021-11-21T15:28:21.760Z</time>
      </trkpt>
      <trkpt lat="48.36116" lon="-3.75612">
        <ele>168.2</ele>
        <time>2021-11-21T15:28:22.567Z</time>
      </trkpt>
      <trkpt lat="48.36112" lon="-3.75611">
        <ele>168</ele>
        <time>2021-11-21T15:28:23.041Z</time>
      </trkpt>
      <trkpt lat="48.36098" lon="-3.75605">
        <ele>168.4</ele>
        <time>2021-11-21T15:28:24.637Z</time>
      </trkpt>
      <trkpt lat="48.36103" lon="-3.75578">
        <ele>167.4</ele>
        <time>2021-11-21T15:28:26.715Z</time>
      </trkpt>
      <trkpt lat="48.36107" lon="-3.75539">
        <ele>167.8</ele>
        <time>2021-11-21T15:28:29.599Z</time>
      </trkpt>
      <trkpt lat="48.3611" lon="-3.75528">
        <ele>168.3</ele>
        <time>2021-11-21T15:28:30.485Z</time>
      </trkpt>
      <trkpt lat="48.36114" lon="-3.75517">
        <ele>168.7</ele>
        <time>2021-11-21T15:28:31.411Z</time>
      </trkpt>
      <trkpt lat="48.36119" lon="-3.75507">
        <ele>169</ele>
        <time>2021-11-21T15:28:32.374Z</time>
      </trkpt>
      <trkpt lat="48.36124" lon="-3.75499">
        <ele>169.3</ele>
        <time>2021-11-21T15:28:33.140Z</time>
      </trkpt>
      <trkpt lat="48.36129" lon="-3.75492">
        <ele>169.5</ele>
        <time>2021-11-21T15:28:33.882Z</time>
      </trkpt>
      <trkpt lat="48.36136" lon="-3.75484">
        <ele>169.9</ele>
        <time>2021-11-21T15:28:34.915Z</time>
      </trkpt>
      <trkpt lat="48.36144" lon="-3.75471">
        <ele>171.4</ele>
        <time>2021-11-21T15:28:36.192Z</time>
      </trkpt>
      <trkpt lat="48.36156" lon="-3.75454">
        <ele>172.8</ele>
        <time>2021-11-21T15:28:38.048Z</time>
      </trkpt>
      <trkpt lat="48.36167" lon="-3.75439">
        <ele>172.1</ele>
        <time>2021-11-21T15:28:39.680Z</time>
      </trkpt>
      <trkpt lat="48.36168" lon="-3.75434">
        <ele>172.2</ele>
        <time>2021-11-21T15:28:40.039Z</time>
      </trkpt>
      <trkpt lat="48.36177" lon="-3.75406">
        <ele>173.5</ele>
        <time>2021-11-21T15:28:42.361Z</time>
      </trkpt>
      <trkpt lat="48.36188" lon="-3.75376">
        <ele>172.9</ele>
        <time>2021-11-21T15:28:44.897Z</time>
      </trkpt>
      <trkpt lat="48.36232" lon="-3.75246">
        <ele>170.7</ele>
        <time>2021-11-21T15:28:55.709Z</time>
      </trkpt>
      <trkpt lat="48.36267" lon="-3.75136">
        <ele>169.9</ele>
        <time>2021-11-21T15:29:04.665Z</time>
      </trkpt>
      <trkpt lat="48.36287" lon="-3.75085">
        <ele>169.8</ele>
        <time>2021-11-21T15:29:09.053Z</time>
      </trkpt>
      <trkpt lat="48.36319" lon="-3.75022">
        <ele>169.7</ele>
        <time>2021-11-21T15:29:14.939Z</time>
      </trkpt>
      <trkpt lat="48.36336" lon="-3.74986">
        <ele>170.3</ele>
        <time>2021-11-21T15:29:18.170Z</time>
      </trkpt>
      <trkpt lat="48.36348" lon="-3.74932">
        <ele>169.1</ele>
        <time>2021-11-21T15:29:22.446Z</time>
      </trkpt>
      <trkpt lat="48.36358" lon="-3.74867">
        <ele>168.6</ele>
        <time>2021-11-21T15:29:27.353Z</time>
      </trkpt>
      <trkpt lat="48.36361" lon="-3.74852">
        <ele>168.7</ele>
        <time>2021-11-21T15:29:28.476Z</time>
      </trkpt>
    </trkseg>
  </trk>
</gpx>